Observation data for Caprock Canyons on 10/17/2019      Previous  Date       Current Mesonet Observations  Soil Data  Daily Summary Page  Observations in Plain Language
KQU1 170500Z 21011KT 12/M00 A3009 RMK A01 T01151001  RH  045%=      5-min Rain = 0
KQU1 170501Z 21012KT 11/M00 A3009 RMK A01 T01141001  RH  045%=      5-min Rain = 0
KQU1 170502Z 21011KT 11/M00 A3009 RMK A01 T01141001  RH  045%=      5-min Rain = 0
KQU1 170503Z 21011KT 11/00 A3009 RMK A01 T011300-0  RH  046%=      5-min Rain = 0
KQU1 170504Z 20010KT 11/00 A3009 RMK A01 T01120000  RH  046%=      5-min Rain = 0
KQU1 170505Z 20010KT 11/00 A3009 RMK A01 T01110000  RH  046%=      5-min Rain = 0
KQU1 170506Z 20011KT 11/00 A3009 RMK A01 T01100001  RH  047%=      5-min Rain = 0
KQU1 170507Z 21011KT 11/00 A3009 RMK A01 T01090001  RH  047%=      5-min Rain = 0
KQU1 170508Z 20010KT 11/00 A3009 RMK A01 T01080001  RH  047%=      5-min Rain = 0
KQU1 170509Z 20010KT 11/00 A3009 RMK A01 T01070002  RH  048%=      5-min Rain = 0
KQU1 170510Z 20011KT 11/00 A3009 RMK A01 T01050002  RH  049%=      5-min Rain = 0
KQU1 170511Z 20011KT 10/00 A3009 RMK A01 T01030002  RH  050%=      5-min Rain = 0
KQU1 170512Z 20010KT 10/00 A3009 RMK A01 T01020003  RH  050%=      5-min Rain = 0
KQU1 170513Z 20011KT 10/00 A3009 RMK A01 T01010003  RH  051%=      5-min Rain = 0
KQU1 170514Z 20011KT 10/00 A3009 RMK A01 T00990003  RH  051%=      5-min Rain = 0
KQU1 170515Z 20011KT 10/00 A3009 RMK A01 T00990004  RH  052%=      5-min Rain = 0
KQU1 170516Z 20011KT 10/00 A3009 RMK A01 T00980004  RH  052%=      5-min Rain = 0
KQU1 170517Z 20011KT 10/00 A3009 RMK A01 T00980004  RH  052%=      5-min Rain = 0
KQU1 170518Z 20011KT 10/00 A3009 RMK A01 T00970004  RH  052%=      5-min Rain = 0
KQU1 170519Z 20011KT 10/00 A3009 RMK A01 T00970004  RH  052%=      5-min Rain = 0
KQU1 170520Z 20011KT 10/00 A3009 RMK A01 T00970004  RH  052%=      5-min Rain = 0
KQU1 170521Z 20011KT 10/00 A3009 RMK A01 T00970004  RH  052%=      5-min Rain = 0
KQU1 170522Z 20011KT 10/00 A3009 RMK A01 T00970004  RH  052%=      5-min Rain = 0
KQU1 170523Z 20011KT 10/00 A3009 RMK A01 T00970004  RH  052%=      5-min Rain = 0
KQU1 170524Z 20011KT 10/01 A3009 RMK A01 T00970005  RH  052%=      5-min Rain = 0
KQU1 170525Z 20011KT 10/01 A3009 RMK A01 T00970005  RH  052%=      5-min Rain = 0
KQU1 170526Z 20010KT 10/01 A3009 RMK A01 T00970005  RH  052%=      5-min Rain = 0
KQU1 170527Z 20010KT 10/01 A3009 RMK A01 T00970005  RH  053%=      5-min Rain = 0
KQU1 170528Z 20011KT 10/01 A3009 RMK A01 T00970005  RH  053%=      5-min Rain = 0
KQU1 170529Z 20010KT 10/01 A3009 RMK A01 T00960005  RH  053%=      5-min Rain = 0
KQU1 170530Z 20010KT 10/01 A3009 RMK A01 T00960005  RH  053%=      5-min Rain = 0
KQU1 170531Z 20010KT 10/01 A3009 RMK A01 T00950005  RH  053%=      5-min Rain = 0
KQU1 170532Z 20010KT 10/01 A3009 RMK A01 T00950005  RH  053%=      5-min Rain = 0
KQU1 170533Z 20010KT 10/01 A3009 RMK A01 T00950005  RH  054%=      5-min Rain = 0
KQU1 170534Z 20010KT 09/01 A3009 RMK A01 T00940005  RH  054%=      5-min Rain = 0
KQU1 170535Z 20010KT 09/01 A3009 RMK A01 T00940005  RH  054%=      5-min Rain = 0
KQU1 170536Z 20010KT 09/01 A3009 RMK A01 T00940005  RH  054%=      5-min Rain = 0
KQU1 170537Z 20010KT 09/01 A3009 RMK A01 T00930005  RH  054%=      5-min Rain = 0
KQU1 170538Z 20010KT 09/01 A3009 RMK A01 T00940005  RH  054%=      5-min Rain = 0
KQU1 170539Z 20010KT 09/01 A3009 RMK A01 T00940005  RH  054%=      5-min Rain = 0
KQU1 170540Z 20010KT 09/01 A3009 RMK A01 T00940005  RH  054%=      5-min Rain = 0
KQU1 170541Z 20011KT 09/01 A3009 RMK A01 T00940005  RH  054%=      5-min Rain = 0
KQU1 170542Z 20010KT 09/01 A3009 RMK A01 T00940005  RH  054%=      5-min Rain = 0
KQU1 170543Z 20010KT 09/01 A3009 RMK A01 T00940005  RH  054%=      5-min Rain = 0
KQU1 170544Z 20010KT 09/01 A3009 RMK A01 T00940005  RH  054%=      5-min Rain = 0
KQU1 170545Z 20010KT 09/01 A3009 RMK A01 T00930005  RH  054%=      5-min Rain = 0
KQU1 170546Z 20010KT 09/01 A3009 RMK A01 T00930006  RH  054%=      5-min Rain = 0
KQU1 170547Z 20011KT 09/01 A3009 RMK A01 T00920006  RH  055%=      5-min Rain = 0
KQU1 170548Z 20011KT 09/01 A3008 RMK A01 T00920006  RH  055%=      5-min Rain = 0
KQU1 170549Z 20011KT 09/01 A3008 RMK A01 T00920006  RH  055%=      5-min Rain = 0
KQU1 170550Z 20011KT 09/01 A3008 RMK A01 T00920006  RH  055%=      5-min Rain = 0
KQU1 170551Z 19011KT 09/01 A3008 RMK A01 T00910006  RH  055%=      5-min Rain = 0
KQU1 170552Z 20011KT 09/01 A3008 RMK A01 T00910006  RH  055%=      5-min Rain = 0
KQU1 170553Z 19011KT 09/01 A3008 RMK A01 T00910006  RH  055%=      5-min Rain = 0
KQU1 170554Z 20011KT 09/01 A3008 RMK A01 T00920006  RH  055%=      5-min Rain = 0
KQU1 170555Z 19011KT 09/01 A3008 RMK A01 T00920006  RH  055%=      5-min Rain = 0
KQU1 170556Z 20011KT 09/01 A3008 RMK A01 T00920006  RH  055%=      5-min Rain = 0
KQU1 170557Z 20011KT 09/01 A3008 RMK A01 T00910006  RH  055%=      5-min Rain = 0
KQU1 170558Z 19011KT 09/01 A3008 RMK A01 T00910006  RH  055%=      5-min Rain = 0
KQU1 170559Z 19011KT 09/01 A3008 RMK A01 T00910006  RH  055%=      5-min Rain = 0
KQU1 170600Z 19011KT 09/01 A3008 RMK A01 T00900006  RH  056%=      5-min Rain = 0
KQU1 170601Z 19011KT 09/01 A3008 RMK A01 T00900006  RH  056%=      5-min Rain = 0
KQU1 170602Z 19011KT 09/01 A3008 RMK A01 T00900006  RH  056%=      5-min Rain = 0
KQU1 170603Z 19011KT 09/01 A3008 RMK A01 T00900006  RH  056%=      5-min Rain = 0
KQU1 170604Z 19011KT 09/01 A3008 RMK A01 T00900006  RH  056%=      5-min Rain = 0
KQU1 170605Z 19011KT 09/01 A3008 RMK A01 T00900006  RH  055%=      5-min Rain = 0
KQU1 170606Z 19011KT 09/01 A3008 RMK A01 T00910006  RH  055%=      5-min Rain = 0
KQU1 170607Z 19011KT 09/01 A3008 RMK A01 T00910005  RH  055%=      5-min Rain = 0
KQU1 170608Z 19010KT 09/01 A3008 RMK A01 T00920005  RH  055%=      5-min Rain = 0
KQU1 170609Z 19010KT 09/01 A3008 RMK A01 T00920005  RH  055%=      5-min Rain = 0
KQU1 170610Z 19011KT 09/01 A3008 RMK A01 T00920005  RH  054%=      5-min Rain = 0
KQU1 170611Z 19010KT 09/01 A3008 RMK A01 T00920005  RH  054%=      5-min Rain = 0
KQU1 170612Z 19010KT 09/01 A3008 RMK A01 T00910005  RH  055%=      5-min Rain = 0
KQU1 170613Z 19010KT 09/00 A3008 RMK A01 T00910004  RH  055%=      5-min Rain = 0
KQU1 170614Z 19010KT 09/01 A3008 RMK A01 T00910005  RH  055%=      5-min Rain = 0
KQU1 170615Z 19010KT 09/01 A3008 RMK A01 T00900005  RH  055%=      5-min Rain = 0
KQU1 170616Z 19010KT 09/01 A3008 RMK A01 T00900005  RH  055%=      5-min Rain = 0
KQU1 170617Z 19009KT 09/01 A3008 RMK A01 T00880005  RH  056%=      5-min Rain = 0
KQU1 170618Z 20009KT 09/01 A3008 RMK A01 T00870005  RH  056%=      5-min Rain = 0
KQU1 170619Z 20008KT 09/01 A3008 RMK A01 T00860005  RH  057%=      5-min Rain = 0
KQU1 170620Z 20008KT 08/01 A3008 RMK A01 T00840005  RH  057%=      5-min Rain = 0
KQU1 170621Z 20008KT 08/01 A3008 RMK A01 T00820005  RH  058%=      5-min Rain = 0
KQU1 170622Z 20008KT 08/01 A3008 RMK A01 T00800005  RH  059%=      5-min Rain = 0
KQU1 170623Z 20008KT 08/01 A3008 RMK A01 T00790005  RH  060%=      5-min Rain = 0
KQU1 170624Z 21008KT 08/01 A3009 RMK A01 T00780005  RH  060%=      5-min Rain = 0
KQU1 170625Z 21008KT 08/01 A3009 RMK A01 T00780006  RH  060%=      5-min Rain = 0
KQU1 170626Z 21008KT 08/01 A3009 RMK A01 T00780006  RH  060%=      5-min Rain = 0
KQU1 170627Z 20008KT 08/01 A3009 RMK A01 T00780006  RH  060%=      5-min Rain = 0
KQU1 170628Z 20008KT 08/01 A3009 RMK A01 T00780006  RH  060%=      5-min Rain = 0
KQU1 170629Z 20008KT 08/01 A3009 RMK A01 T00790006  RH  060%=      5-min Rain = 0
KQU1 170630Z 20008KT 08/01 A3009 RMK A01 T00800006  RH  060%=      5-min Rain = 0
KQU1 170631Z 20008KT 08/01 A3009 RMK A01 T00800006  RH  059%=      5-min Rain = 0
KQU1 170632Z 20008KT 08/01 A3009 RMK A01 T00810006  RH  059%=      5-min Rain = 0
KQU1 170633Z 20008KT 08/01 A3008 RMK A01 T00810006  RH  059%=      5-min Rain = 0
KQU1 170634Z 20008KT 08/01 A3008 RMK A01 T00820006  RH  059%=      5-min Rain = 0
KQU1 170635Z 20008KT 08/01 A3008 RMK A01 T00820006  RH  059%=      5-min Rain = 0
KQU1 170636Z 20009KT 08/01 A3008 RMK A01 T00820006  RH  059%=      5-min Rain = 0
KQU1 170637Z 19009KT 08/01 A3008 RMK A01 T00820006  RH  059%=      5-min Rain = 0
KQU1 170638Z 19009KT 08/01 A3008 RMK A01 T00820006  RH  059%=      5-min Rain = 0
KQU1 170639Z 19009KT 08/01 A3008 RMK A01 T00820006  RH  058%=      5-min Rain = 0
KQU1 170640Z 19009KT 08/01 A3008 RMK A01 T00830006  RH  058%=      5-min Rain = 0
KQU1 170641Z 19010KT 08/01 A3008 RMK A01 T00830005  RH  058%=      5-min Rain = 0
KQU1 170642Z 19010KT 08/01 A3008 RMK A01 T00830005  RH  058%=      5-min Rain = 0
KQU1 170643Z 19010KT 08/01 A3008 RMK A01 T00830005  RH  058%=      5-min Rain = 0
KQU1 170644Z 19009KT 08/01 A3008 RMK A01 T00830006  RH  058%=      5-min Rain = 0
KQU1 170645Z 19010KT 08/01 A3008 RMK A01 T00830006  RH  058%=      5-min Rain = 0
KQU1 170646Z 19009KT 08/01 A3008 RMK A01 T00820006  RH  058%=      5-min Rain = 0
KQU1 170647Z 19009KT 08/01 A3008 RMK A01 T00820006  RH  059%=      5-min Rain = 0
KQU1 170648Z 19009KT 08/01 A3008 RMK A01 T00810006  RH  059%=      5-min Rain = 0
KQU1 170649Z 19009KT 08/01 A3008 RMK A01 T00810006  RH  059%=      5-min Rain = 0
KQU1 170650Z 19008KT 08/01 A3008 RMK A01 T00800006  RH  059%=      5-min Rain = 0
KQU1 170651Z 19009KT 08/01 A3008 RMK A01 T00790006  RH  060%=      5-min Rain = 0
KQU1 170652Z 19009KT 08/01 A3008 RMK A01 T00780006  RH  060%=      5-min Rain = 0
KQU1 170653Z 19009KT 08/01 A3007 RMK A01 T00780006  RH  060%=      5-min Rain = 0
KQU1 170654Z 19009KT 08/01 A3007 RMK A01 T00770006  RH  060%=      5-min Rain = 0
KQU1 170655Z 19009KT 08/01 A3007 RMK A01 T00770006  RH  061%=      5-min Rain = 0
KQU1 170656Z 19009KT 08/01 A3007 RMK A01 T00770006  RH  061%=      5-min Rain = 0
KQU1 170657Z 19009KT 08/01 A3007 RMK A01 T00760006  RH  061%=      5-min Rain = 0
KQU1 170658Z 19009KT 08/01 A3007 RMK A01 T00750006  RH  061%=      5-min Rain = 0
KQU1 170659Z 19009KT 07/01 A3007 RMK A01 T00740006  RH  062%=      5-min Rain = 0
KQU1 170700Z 19009KT 07/01 A3007 RMK A01 T00730006  RH  062%=      5-min Rain = 0
KQU1 170701Z 19008KT 07/01 A3007 RMK A01 T00720006  RH  063%=      5-min Rain = 0
KQU1 170702Z 19008KT 07/01 A3007 RMK A01 T00710006  RH  063%=      5-min Rain = 0
KQU1 170703Z 19008KT 07/01 A3007 RMK A01 T00700006  RH  063%=      5-min Rain = 0
KQU1 170704Z 19008KT 07/01 A3007 RMK A01 T00690006  RH  064%=      5-min Rain = 0
KQU1 170705Z 19008KT 07/01 A3007 RMK A01 T00680006  RH  064%=      5-min Rain = 0
KQU1 170706Z 19008KT 07/01 A3007 RMK A01 T00680006  RH  065%=      5-min Rain = 0
KQU1 170707Z 19008KT 07/01 A3007 RMK A01 T00680006  RH  065%=      5-min Rain = 0
KQU1 170708Z 19008KT 07/01 A3007 RMK A01 T00680006  RH  065%=      5-min Rain = 0
KQU1 170709Z 19008KT 07/01 A3007 RMK A01 T00680007  RH  065%=      5-min Rain = 0
KQU1 170710Z 19008KT 07/01 A3007 RMK A01 T00680007  RH  065%=      5-min Rain = 0
KQU1 170711Z 19008KT 07/01 A3007 RMK A01 T00680007  RH  065%=      5-min Rain = 0
KQU1 170712Z 19009KT 07/01 A3007 RMK A01 T00690007  RH  065%=      5-min Rain = 0
KQU1 170713Z 19008KT 07/01 A3007 RMK A01 T00690007  RH  065%=      5-min Rain = 0
KQU1 170714Z 19008KT 07/01 A3007 RMK A01 T00680007  RH  065%=      5-min Rain = 0
KQU1 170715Z 19009KT 07/01 A3007 RMK A01 T00670007  RH  065%=      5-min Rain = 0
KQU1 170716Z 19009KT 07/01 A3007 RMK A01 T00670007  RH  066%=      5-min Rain = 0
KQU1 170717Z 18009KT 07/01 A3007 RMK A01 T00660007  RH  066%=      5-min Rain = 0
KQU1 170718Z 18008KT 07/01 A3007 RMK A01 T00660007  RH  066%=      5-min Rain = 0
KQU1 170719Z 18008KT 07/01 A3007 RMK A01 T00660006  RH  066%=      5-min Rain = 0
KQU1 170720Z 18007KT 07/01 A3007 RMK A01 T00650006  RH  066%=      5-min Rain = 0
KQU1 170721Z 18007KT 07/01 A3007 RMK A01 T00650006  RH  066%=      5-min Rain = 0
KQU1 170722Z 18006KT 07/01 A3007 RMK A01 T00650006  RH  066%=      5-min Rain = 0
KQU1 170723Z 18006KT 06/01 A3007 RMK A01 T00640006  RH  066%=      5-min Rain = 0
KQU1 170724Z 18007KT 06/01 A3007 RMK A01 T00640006  RH  066%=      5-min Rain = 0
KQU1 170725Z 18006KT 06/01 A3007 RMK A01 T00640007  RH  067%=      5-min Rain = 0
KQU1 170726Z 19006KT 07/01 A3007 RMK A01 T00650007  RH  066%=      5-min Rain = 0
KQU1 170727Z 19006KT 07/01 A3007 RMK A01 T00650007  RH  066%=      5-min Rain = 0
KQU1 170728Z 19006KT 07/01 A3007 RMK A01 T00660007  RH  066%=      5-min Rain = 0
KQU1 170729Z 20005KT 07/01 A3007 RMK A01 T00660007  RH  066%=      5-min Rain = 0
KQU1 170730Z 20005KT 07/01 A3007 RMK A01 T00660007  RH  066%=      5-min Rain = 0
KQU1 170731Z 21004KT 07/01 A3007 RMK A01 T00660006  RH  066%=      5-min Rain = 0
KQU1 170732Z 21004KT 07/01 A3007 RMK A01 T00660006  RH  066%=      5-min Rain = 0
KQU1 170733Z 22003KT 07/01 A3007 RMK A01 T00660006  RH  066%=      5-min Rain = 0
KQU1 170734Z 25001KT 07/01 A3007 RMK A01 T00660007  RH  066%=      5-min Rain = 0
KQU1 170735Z 31002KT 07/01 A3007 RMK A01 T00660008  RH  066%=      5-min Rain = 0
KQU1 170736Z 33003KT 07/01 A3007 RMK A01 T00660008  RH  066%=      5-min Rain = 0
KQU1 170737Z 33003KT 07/01 A3008 RMK A01 T00660008  RH  067%=      5-min Rain = 0
KQU1 170738Z 34003KT 07/01 A3008 RMK A01 T00660009  RH  067%=      5-min Rain = 0
KQU1 170739Z 34005KT 07/01 A3008 RMK A01 T00670012  RH  068%=      5-min Rain = 0
KQU1 170740Z 35004KT 07/01 A3008 RMK A01 T00670013  RH  068%=      5-min Rain = 0
KQU1 170741Z 32004KT 07/01 A3008 RMK A01 T00680012  RH  067%=      5-min Rain = 0
KQU1 170742Z 34003KT 07/01 A3008 RMK A01 T00710014  RH  067%=      5-min Rain = 0
KQU1 170743Z 35003KT 07/02 A3008 RMK A01 T00740015  RH  066%=      5-min Rain = 0
KQU1 170744Z 00003KT 08/02 A3008 RMK A01 T00750015  RH  066%=      5-min Rain = 0
KQU1 170745Z 00002KT 08/01 A3008 RMK A01 T00750013  RH  065%=      5-min Rain = 0
KQU1 170746Z 00002KT 08/01 A3008 RMK A01 T00750014  RH  065%=      5-min Rain = 0
KQU1 170747Z 36002KT 08/02 A3008 RMK A01 T00760016  RH  066%=      5-min Rain = 0
KQU1 170748Z 35002KT 08/02 A3008 RMK A01 T00760015  RH  065%=      5-min Rain = 0
KQU1 170749Z 35003KT 08/01 A3008 RMK A01 T00760013  RH  064%=      5-min Rain = 0
KQU1 170750Z 36003KT 08/01 A3008 RMK A01 T00760009  RH  063%=      5-min Rain = 0
KQU1 170751Z 34003KT 08/01 A3008 RMK A01 T00750008  RH  062%=      5-min Rain = 0
KQU1 170752Z 34004KT 08/01 A3008 RMK A01 T00750008  RH  063%=      5-min Rain = 0
KQU1 170753Z 35004KT 08/01 A3008 RMK A01 T00750008  RH  062%=      5-min Rain = 0
KQU1 170754Z 35005KT 08/01 A3008 RMK A01 T00760012  RH  064%=      5-min Rain = 0
KQU1 170755Z 35006KT 08/02 A3008 RMK A01 T00780015  RH  064%=      5-min Rain = 0
KQU1 170756Z 35005KT 08/02 A3008 RMK A01 T00790016  RH  065%=      5-min Rain = 0
KQU1 170757Z 34005KT 08/02 A3008 RMK A01 T00790015  RH  064%=      5-min Rain = 0
KQU1 170758Z 33005KT 08/02 A3008 RMK A01 T00800017  RH  064%=      5-min Rain = 0
KQU1 170759Z 33005KT 08/01 A3008 RMK A01 T00810014  RH  063%=      5-min Rain = 0
KQU1 170800Z 35004KT 08/01 A3008 RMK A01 T00810013  RH  062%=      5-min Rain = 0
KQU1 170801Z 00004KT 08/02 A3008 RMK A01 T00820016  RH  063%=      5-min Rain = 0
KQU1 170802Z 33004KT 08/02 A3008 RMK A01 T00820015  RH  063%=      5-min Rain = 0
KQU1 170803Z 31004KT 08/01 A3008 RMK A01 T00820012  RH  062%=      5-min Rain = 0
KQU1 170804Z 32004KT 08/01 A3008 RMK A01 T00800007  RH  060%=      5-min Rain = 0
KQU1 170805Z 33005KT 08/01 A3008 RMK A01 T00780006  RH  060%=      5-min Rain = 0
KQU1 170806Z 33005KT 08/01 A3008 RMK A01 T00770005  RH  060%=      5-min Rain = 0
KQU1 170807Z 34006KT 08/01 A3008 RMK A01 T00770005  RH  060%=      5-min Rain = 0
KQU1 170808Z 33006KT 08/00 A3008 RMK A01 T00780004  RH  060%=      5-min Rain = 0
KQU1 170809Z 33007KT 08/00 A3008 RMK A01 T00790004  RH  059%=      5-min Rain = 0
KQU1 170810Z 32007KT 08/00 A3008 RMK A01 T00810004  RH  058%=      5-min Rain = 0
KQU1 170811Z 32007KT 08/01 A3008 RMK A01 T00830005  RH  058%=      5-min Rain = 0
KQU1 170812Z 32007KT 08/01 A3008 RMK A01 T00840005  RH  058%=      5-min Rain = 0
KQU1 170813Z 32006KT 08/01 A3008 RMK A01 T00830005  RH  058%=      5-min Rain = 0
KQU1 170814Z 32006KT 08/01 A3008 RMK A01 T00830005  RH  058%=      5-min Rain = 0
KQU1 170815Z 32006KT 08/01 A3008 RMK A01 T00830005  RH  058%=      5-min Rain = 0
KQU1 170816Z 32005KT 08/01 A3008 RMK A01 T00840005  RH  057%=      5-min Rain = 0
KQU1 170817Z 32005KT 08/01 A3008 RMK A01 T00840005  RH  057%=      5-min Rain = 0
KQU1 170818Z 32004KT 08/01 A3008 RMK A01 T00840005  RH  058%=      5-min Rain = 0
KQU1 170819Z 31004KT 08/01 A3008 RMK A01 T00830005  RH  058%=      5-min Rain = 0
KQU1 170820Z 31004KT 08/01 A3008 RMK A01 T00830005  RH  058%=      5-min Rain = 0
KQU1 170821Z 30004KT 08/01 A3008 RMK A01 T00820005  RH  058%=      5-min Rain = 0
KQU1 170822Z 30004KT 08/01 A3008 RMK A01 T00820005  RH  058%=      5-min Rain = 0
KQU1 170823Z 28004KT 08/01 A3008 RMK A01 T00820005  RH  058%=      5-min Rain = 0
KQU1 170824Z 27004KT 08/01 A3008 RMK A01 T00810005  RH  059%=      5-min Rain = 0
KQU1 170825Z 27003KT 08/01 A3008 RMK A01 T00810005  RH  059%=      5-min Rain = 0
KQU1 170826Z 27003KT 08/01 A3008 RMK A01 T00800005  RH  059%=      5-min Rain = 0
KQU1 170827Z 27004KT 08/01 A3008 RMK A01 T00800005  RH  059%=      5-min Rain = 0
KQU1 170828Z 27004KT 08/01 A3008 RMK A01 T00800005  RH  059%=      5-min Rain = 0
KQU1 170829Z 27004KT 08/01 A3008 RMK A01 T00790005  RH  059%=      5-min Rain = 0
KQU1 170830Z 28004KT 08/01 A3008 RMK A01 T00800005  RH  059%=      5-min Rain = 0
KQU1 170831Z 28004KT 08/01 A3007 RMK A01 T00800005  RH  059%=      5-min Rain = 0
KQU1 170832Z 28004KT 08/01 A3007 RMK A01 T00790005  RH  060%=      5-min Rain = 0
KQU1 170833Z 29003KT 08/01 A3007 RMK A01 T00810006  RH  059%=      5-min Rain = 0
KQU1 170834Z 29002KT 08/01 A3007 RMK A01 T00830006  RH  059%=      5-min Rain = 0
KQU1 170835Z 28001KT 08/01 A3007 RMK A01 T00840007  RH  058%=      5-min Rain = 0
KQU1 170836Z 29001KT 09/01 A3007 RMK A01 T00850007  RH  058%=      5-min Rain = 0
KQU1 170837Z 29001KT 09/01 A3007 RMK A01 T00850007  RH  058%=      5-min Rain = 0
KQU1 170838Z 29002KT 09/01 A3007 RMK A01 T00850008  RH  058%=      5-min Rain = 0
KQU1 170839Z 29003KT 09/01 A3007 RMK A01 T00850008  RH  059%=      5-min Rain = 0
KQU1 170840Z 28003KT 08/01 A3007 RMK A01 T00840009  RH  059%=      5-min Rain = 0
KQU1 170841Z 28003KT 08/01 A3007 RMK A01 T00840009  RH  059%=      5-min Rain = 0
KQU1 170842Z 27003KT 08/01 A3007 RMK A01 T00840009  RH  059%=      5-min Rain = 0
KQU1 170843Z 28003KT 08/01 A3007 RMK A01 T00840008  RH  059%=      5-min Rain = 0
KQU1 170844Z 27003KT 09/01 A3007 RMK A01 T00850008  RH  058%=      5-min Rain = 0
KQU1 170845Z 26004KT 09/01 A3007 RMK A01 T00870007  RH  057%=      5-min Rain = 0
KQU1 170846Z 26002KT 09/01 A3007 RMK A01 T00880007  RH  057%=      5-min Rain = 0
KQU1 170847Z 26002KT 09/01 A3007 RMK A01 T00890007  RH  056%=      5-min Rain = 0
KQU1 170848Z 28001KT 09/01 A3007 RMK A01 T00890007  RH  056%=      5-min Rain = 0
KQU1 170849Z 27002KT 09/01 A3007 RMK A01 T00890007  RH  056%=      5-min Rain = 0
KQU1 170850Z 27002KT 09/01 A3007 RMK A01 T00890007  RH  057%=      5-min Rain = 0
KQU1 170851Z 26004KT 09/01 A3007 RMK A01 T00880007  RH  057%=      5-min Rain = 0
KQU1 170852Z 26005KT 09/01 A3007 RMK A01 T00870008  RH  058%=      5-min Rain = 0
KQU1 170853Z 26005KT 09/01 A3007 RMK A01 T00850007  RH  058%=      5-min Rain = 0
KQU1 170854Z 25005KT 08/01 A3007 RMK A01 T00840006  RH  058%=      5-min Rain = 0
KQU1 170855Z 24005KT 08/01 A3007 RMK A01 T00820005  RH  058%=      5-min Rain = 0
KQU1 170856Z 24005KT 08/01 A3007 RMK A01 T00810005  RH  059%=      5-min Rain = 0
KQU1 170857Z 23006KT 08/01 A3007 RMK A01 T00800005  RH  059%=      5-min Rain = 0
KQU1 170858Z 23006KT 08/01 A3007 RMK A01 T00800005  RH  059%=      5-min Rain = 0
KQU1 170859Z 23007KT 08/01 A3007 RMK A01 T00800006  RH  059%=      5-min Rain = 0
KQU1 170900Z 22008KT 08/01 A3007 RMK A01 T00820007  RH  059%=      5-min Rain = 0
KQU1 170901Z 23008KT 08/01 A3007 RMK A01 T00830007  RH  059%=      5-min Rain = 0
KQU1 170902Z 22008KT 09/01 A3007 RMK A01 T00850007  RH  058%=      5-min Rain = 0
KQU1 170903Z 22008KT 09/01 A3007 RMK A01 T00870007  RH  057%=      5-min Rain = 0
KQU1 170904Z 22009KT 09/01 A3007 RMK A01 T00900006  RH  056%=      5-min Rain = 0
KQU1 170905Z 22009KT 09/01 A3007 RMK A01 T00920005  RH  054%=      5-min Rain = 0
KQU1 170906Z 22008KT 09/01 A3007 RMK A01 T00940005  RH  053%=      5-min Rain = 0
KQU1 170907Z 22009KT 10/00 A3007 RMK A01 T00950004  RH  053%=      5-min Rain = 0
KQU1 170908Z 22009KT 10/00 A3007 RMK A01 T00960004  RH  053%=      5-min Rain = 0
KQU1 170909Z 22008KT 10/00 A3007 RMK A01 T00960003  RH  052%=      5-min Rain = 0
KQU1 170910Z 22008KT 10/00 A3007 RMK A01 T00970003  RH  052%=      5-min Rain = 0
KQU1 170911Z 22008KT 10/00 A3006 RMK A01 T00970003  RH  052%=      5-min Rain = 0
KQU1 170912Z 21008KT 10/00 A3006 RMK A01 T00970002  RH  052%=      5-min Rain = 0
KQU1 170913Z 21008KT 10/00 A3006 RMK A01 T00970002  RH  051%=      5-min Rain = 0
KQU1 170914Z 21009KT 10/00 A3006 RMK A01 T00970002  RH  051%=      5-min Rain = 0
KQU1 170915Z 21008KT 10/00 A3006 RMK A01 T00970001  RH  051%=      5-min Rain = 0
KQU1 170916Z 21008KT 10/00 A3006 RMK A01 T00970002  RH  051%=      5-min Rain = 0
KQU1 170917Z 20008KT 10/00 A3006 RMK A01 T00970002  RH  052%=      5-min Rain = 0
KQU1 170918Z 20008KT 10/00 A3006 RMK A01 T00960002  RH  052%=      5-min Rain = 0
KQU1 170919Z 20008KT 10/00 A3006 RMK A01 T00950002  RH  052%=      5-min Rain = 0
KQU1 170920Z 20009KT 10/00 A3006 RMK A01 T00950002  RH  052%=      5-min Rain = 0
KQU1 170921Z 20008KT 09/00 A3005 RMK A01 T00930003  RH  053%=      5-min Rain = 0
KQU1 170922Z 19008KT 09/00 A3005 RMK A01 T00910003  RH  054%=      5-min Rain = 0
KQU1 170923Z 19008KT 09/00 A3005 RMK A01 T00890003  RH  055%=      5-min Rain = 0
KQU1 170924Z 18008KT 09/00 A3005 RMK A01 T00870004  RH  056%=      5-min Rain = 0
KQU1 170925Z 18009KT 09/00 A3005 RMK A01 T00850004  RH  057%=      5-min Rain = 0
KQU1 170926Z 18009KT 08/00 A3006 RMK A01 T00830004  RH  057%=      5-min Rain = 0
KQU1 170927Z 18009KT 08/00 A3006 RMK A01 T00810004  RH  058%=      5-min Rain = 0
KQU1 170928Z 18009KT 08/00 A3006 RMK A01 T00800004  RH  059%=      5-min Rain = 0
KQU1 170929Z 17008KT 08/00 A3006 RMK A01 T00790004  RH  059%=      5-min Rain = 0
KQU1 170930Z 16007KT 08/00 A3006 RMK A01 T00780004  RH  060%=      5-min Rain = 0
KQU1 170931Z 17008KT 08/00 A3006 RMK A01 T00770004  RH  060%=      5-min Rain = 0
KQU1 170932Z 17007KT 08/00 A3006 RMK A01 T00760004  RH  060%=      5-min Rain = 0
KQU1 170933Z 17007KT 08/00 A3006 RMK A01 T00750004  RH  061%=      5-min Rain = 0
KQU1 170934Z 18007KT 07/00 A3005 RMK A01 T00740003  RH  061%=      5-min Rain = 0
KQU1 170935Z 18007KT 07/00 A3005 RMK A01 T00730004  RH  061%=      5-min Rain = 0
KQU1 170936Z 17007KT 07/00 A3005 RMK A01 T00720004  RH  062%=      5-min Rain = 0
KQU1 170937Z 17008KT 07/00 A3005 RMK A01 T00720004  RH  062%=      5-min Rain = 0
KQU1 170938Z 17008KT 07/01 A3005 RMK A01 T00720005  RH  062%=      5-min Rain = 0
KQU1 170939Z 17008KT 07/01 A3005 RMK A01 T00720005  RH  062%=      5-min Rain = 0
KQU1 170940Z 17008KT 07/01 A3005 RMK A01 T00730005  RH  062%=      5-min Rain = 0
KQU1 170941Z 16008KT 07/01 A3005 RMK A01 T00720005  RH  062%=      5-min Rain = 0
KQU1 170942Z 16008KT 07/01 A3005 RMK A01 T00720005  RH  062%=      5-min Rain = 0
KQU1 170943Z 16008KT 07/00 A3005 RMK A01 T00710004  RH  062%=      5-min Rain = 0
KQU1 170944Z 16008KT 07/00 A3005 RMK A01 T00700004  RH  063%=      5-min Rain = 0
KQU1 170945Z 16008KT 07/00 A3005 RMK A01 T00690004  RH  063%=      5-min Rain = 0
KQU1 170946Z 16008KT 07/00 A3005 RMK A01 T00680004  RH  063%=      5-min Rain = 0
KQU1 170947Z 16009KT 07/00 A3005 RMK A01 T00680004  RH  064%=      5-min Rain = 0
KQU1 170948Z 16009KT 07/00 A3005 RMK A01 T00670004  RH  064%=      5-min Rain = 0
KQU1 170949Z 16009KT 07/00 A3005 RMK A01 T00670004  RH  064%=      5-min Rain = 0
KQU1 170950Z 16009KT 07/00 A3005 RMK A01 T00670004  RH  064%=      5-min Rain = 0
KQU1 170951Z 16009KT 07/00 A3005 RMK A01 T00660004  RH  065%=      5-min Rain = 0
KQU1 170952Z 16010KT 07/00 A3005 RMK A01 T00660004  RH  065%=      5-min Rain = 0
KQU1 170953Z 16009KT 07/01 A3004 RMK A01 T00660005  RH  065%=      5-min Rain = 0
KQU1 170954Z 17010KT 07/01 A3004 RMK A01 T00660005  RH  065%=      5-min Rain = 0
KQU1 170955Z 17009KT 07/01 A3004 RMK A01 T00660005  RH  065%=      5-min Rain = 0
KQU1 170956Z 17009KT 07/01 A3004 RMK A01 T00660005  RH  065%=      5-min Rain = 0
KQU1 170957Z 17009KT 07/01 A3004 RMK A01 T00670006  RH  065%=      5-min Rain = 0
KQU1 170958Z 17009KT 07/01 A3004 RMK A01 T00670006  RH  065%=      5-min Rain = 0
KQU1 170959Z 16009KT 07/01 A3004 RMK A01 T00680006  RH  064%=      5-min Rain = 0
KQU1 171000Z 17010KT 07/01 A3004 RMK A01 T00690006  RH  064%=      5-min Rain = 0
KQU1 171001Z 16011KT 07/01 A3004 RMK A01 T00690006  RH  064%=      5-min Rain = 0
KQU1 171002Z 16011KT 07/01 A3004 RMK A01 T00690006  RH  064%=      5-min Rain = 0
KQU1 171003Z 16011KT 07/01 A3004 RMK A01 T00690006  RH  064%=      5-min Rain = 0
KQU1 171004Z 16011KT 07/01 A3004 RMK A01 T00690006  RH  064%=      5-min Rain = 0
KQU1 171005Z 16011KT 07/01 A3004 RMK A01 T00690006  RH  064%=      5-min Rain = 0
KQU1 171006Z 17011KT 07/01 A3004 RMK A01 T00690006  RH  064%=      5-min Rain = 0
KQU1 171007Z 17011KT 07/01 A3004 RMK A01 T00680006  RH  064%=      5-min Rain = 0
KQU1 171008Z 17010KT 07/01 A3004 RMK A01 T00690006  RH  064%=      5-min Rain = 0
KQU1 171009Z 17010KT 07/01 A3004 RMK A01 T00690006  RH  064%=      5-min Rain = 0
KQU1 171010Z 17010KT 07/01 A3004 RMK A01 T00690006  RH  064%=      5-min Rain = 0
KQU1 171011Z 16011KT 07/01 A3004 RMK A01 T00700006  RH  064%=      5-min Rain = 0
KQU1 171012Z 16010KT 07/01 A3004 RMK A01 T00700006  RH  064%=      5-min Rain = 0
KQU1 171013Z 16011KT 07/01 A3004 RMK A01 T00690005  RH  064%=      5-min Rain = 0
KQU1 171014Z 16011KT 07/01 A3004 RMK A01 T00680005  RH  064%=      5-min Rain = 0
KQU1 171015Z 16011KT 07/01 A3004 RMK A01 T00680006  RH  065%=      5-min Rain = 0
KQU1 171016Z 16012KT 07/01 A3004 RMK A01 T00670006  RH  065%=      5-min Rain = 0
KQU1 171017Z 16012KT 07/01 A3005 RMK A01 T00660006  RH  065%=      5-min Rain = 0
KQU1 171018Z 16011KT 07/01 A3005 RMK A01 T00660006  RH  065%=      5-min Rain = 0
KQU1 171019Z 16011KT 07/01 A3005 RMK A01 T00660006  RH  065%=      5-min Rain = 0
KQU1 171020Z 16011KT 07/01 A3005 RMK A01 T00660006  RH  065%=      5-min Rain = 0
KQU1 171021Z 16011KT 07/01 A3005 RMK A01 T00660006  RH  065%=      5-min Rain = 0
KQU1 171022Z 16011KT 07/01 A3005 RMK A01 T00660006  RH  065%=      5-min Rain = 0
KQU1 171023Z 16010KT 07/01 A3005 RMK A01 T00660005  RH  065%=      5-min Rain = 0
KQU1 171024Z 16010KT 07/01 A3005 RMK A01 T00660005  RH  065%=      5-min Rain = 0
KQU1 171025Z 17010KT 07/01 A3004 RMK A01 T00670005  RH  065%=      5-min Rain = 0
KQU1 171026Z 17011KT 07/01 A3004 RMK A01 T00670005  RH  065%=      5-min Rain = 0
KQU1 171027Z 17011KT 07/01 A3004 RMK A01 T00680005  RH  064%=      5-min Rain = 0
KQU1 171028Z 17012KT 07/01 A3004 RMK A01 T00700005  RH  064%=      5-min Rain = 0
KQU1 171029Z 17012KT 07/01 A3004 RMK A01 T00710005  RH  063%=      5-min Rain = 0
KQU1 171030Z 17012KT 07/01 A3004 RMK A01 T00730005  RH  062%=      5-min Rain = 0
KQU1 171031Z 17011KT 07/01 A3004 RMK A01 T00740005  RH  061%=      5-min Rain = 0
KQU1 171032Z 17012KT 08/01 A3004 RMK A01 T00750005  RH  061%=      5-min Rain = 0
KQU1 171033Z 17012KT 08/01 A3004 RMK A01 T00770005  RH  060%=      5-min Rain = 0
KQU1 171034Z 18011KT 08/00 A3004 RMK A01 T00780004  RH  060%=      5-min Rain = 0
KQU1 171035Z 18011KT 08/00 A3004 RMK A01 T00790004  RH  059%=      5-min Rain = 0
KQU1 171036Z 18009KT 08/00 A3004 RMK A01 T00800004  RH  058%=      5-min Rain = 0
KQU1 171037Z 18008KT 08/00 A3004 RMK A01 T00800004  RH  058%=      5-min Rain = 0
KQU1 171038Z 18007KT 08/00 A3004 RMK A01 T00800003  RH  058%=      5-min Rain = 0
KQU1 171039Z 18006KT 08/00 A3004 RMK A01 T00790003  RH  059%=      5-min Rain = 0
KQU1 171040Z 18006KT 08/00 A3004 RMK A01 T00770003  RH  059%=      5-min Rain = 0
KQU1 171041Z 19007KT 08/00 A3004 RMK A01 T00760003  RH  060%=      5-min Rain = 0
KQU1 171042Z 18008KT 07/00 A3004 RMK A01 T00740003  RH  061%=      5-min Rain = 0
KQU1 171043Z 18008KT 07/00 A3004 RMK A01 T00740003  RH  061%=      5-min Rain = 0
KQU1 171044Z 18008KT 07/00 A3004 RMK A01 T00730003  RH  061%=      5-min Rain = 0
KQU1 171045Z 18007KT 07/00 A3004 RMK A01 T00730003  RH  061%=      5-min Rain = 0
KQU1 171046Z 18006KT 07/00 A3005 RMK A01 T00720003  RH  062%=      5-min Rain = 0
KQU1 171047Z 18006KT 07/00 A3005 RMK A01 T00710003  RH  062%=      5-min Rain = 0
KQU1 171048Z 18006KT 07/00 A3005 RMK A01 T00700003  RH  062%=      5-min Rain = 0
KQU1 171049Z 18007KT 07/00 A3005 RMK A01 T00690003  RH  063%=      5-min Rain = 0
KQU1 171050Z 18007KT 07/00 A3005 RMK A01 T00690003  RH  063%=      5-min Rain = 0
KQU1 171051Z 17007KT 07/00 A3005 RMK A01 T00680003  RH  063%=      5-min Rain = 0
KQU1 171052Z 18007KT 07/00 A3005 RMK A01 T00680003  RH  063%=      5-min Rain = 0
KQU1 171053Z 18006KT 07/00 A3004 RMK A01 T00680003  RH  063%=      5-min Rain = 0
KQU1 171054Z 17006KT 07/00 A3004 RMK A01 T00680003  RH  063%=      5-min Rain = 0
KQU1 171055Z 17007KT 07/00 A3004 RMK A01 T00680003  RH  063%=      5-min Rain = 0
KQU1 171056Z 17007KT 07/00 A3004 RMK A01 T00670003  RH  064%=      5-min Rain = 0
KQU1 171057Z 17008KT 07/00 A3004 RMK A01 T00670003  RH  064%=      5-min Rain = 0
KQU1 171058Z 16009KT 07/00 A3004 RMK A01 T00670003  RH  064%=      5-min Rain = 0
KQU1 171059Z 16009KT 07/00 A3004 RMK A01 T00670004  RH  064%=      5-min Rain = 0
KQU1 171100Z 16009KT 07/00 A3004 RMK A01 T00670004  RH  064%=      5-min Rain = 0
KQU1 171101Z 16010KT 07/00 A3004 RMK A01 T00670004  RH  064%=      5-min Rain = 0
KQU1 171102Z 15010KT 07/00 A3004 RMK A01 T00670004  RH  064%=      5-min Rain = 0
KQU1 171103Z 15010KT 07/00 A3004 RMK A01 T00670004  RH  064%=      5-min Rain = 0
KQU1 171104Z 15009KT 07/00 A3004 RMK A01 T00660004  RH  064%=      5-min Rain = 0
KQU1 171105Z 15008KT 07/00 A3004 RMK A01 T00650003  RH  065%=      5-min Rain = 0
KQU1 171106Z 15008KT 06/00 A3004 RMK A01 T00640003  RH  065%=      5-min Rain = 0
KQU1 171107Z 16007KT 06/00 A3004 RMK A01 T00620002  RH  065%=      5-min Rain = 0
KQU1 171108Z 15006KT 06/00 A3004 RMK A01 T00610002  RH  066%=      5-min Rain = 0
KQU1 171109Z 15007KT 06/00 A3004 RMK A01 T00590002  RH  066%=      5-min Rain = 0
KQU1 171110Z 15009KT 06/00 A3004 RMK A01 T00580002  RH  067%=      5-min Rain = 0
KQU1 171111Z 15009KT 06/00 A3003 RMK A01 T00570002  RH  067%=      5-min Rain = 0
KQU1 171112Z 14009KT 06/00 A3004 RMK A01 T00560002  RH  068%=      5-min Rain = 0
KQU1 171113Z 14010KT 06/00 A3003 RMK A01 T00550002  RH  069%=      5-min Rain = 0
KQU1 171114Z 14010KT 06/00 A3003 RMK A01 T00550002  RH  069%=      5-min Rain = 0
KQU1 171115Z 15010KT 05/00 A3003 RMK A01 T00540002  RH  069%=      5-min Rain = 0
KQU1 171116Z 15009KT 05/00 A3003 RMK A01 T00540003  RH  069%=      5-min Rain = 0
KQU1 171117Z 15009KT 05/00 A3003 RMK A01 T00540003  RH  069%=      5-min Rain = 0
KQU1 171118Z 15007KT 05/00 A3003 RMK A01 T00540003  RH  070%=      5-min Rain = 0
KQU1 171119Z 15008KT 05/00 A3003 RMK A01 T00540003  RH  070%=      5-min Rain = 0
KQU1 171120Z 15008KT 05/00 A3003 RMK A01 T00540004  RH  070%=      5-min Rain = 0
KQU1 171121Z 15008KT 05/00 A3004 RMK A01 T00540004  RH  070%=      5-min Rain = 0
KQU1 171122Z 15009KT 06/00 A3004 RMK A01 T00550004  RH  070%=      5-min Rain = 0
KQU1 171123Z 17006KT 06/01 A3004 RMK A01 T00550005  RH  070%=      5-min Rain = 0
KQU1 171124Z 17006KT 06/01 A3004 RMK A01 T00560005  RH  070%=      5-min Rain = 0
KQU1 171125Z 16006KT 06/01 A3004 RMK A01 T00560005  RH  070%=      5-min Rain = 0
KQU1 171126Z 16007KT 06/01 A3004 RMK A01 T00560005  RH  069%=      5-min Rain = 0
KQU1 171127Z 17007KT 06/01 A3004 RMK A01 T00560005  RH  069%=      5-min Rain = 0
KQU1 171128Z 17007KT 06/01 A3004 RMK A01 T00560005  RH  069%=      5-min Rain = 0
KQU1 171129Z 17006KT 06/01 A3004 RMK A01 T00560005  RH  069%=      5-min Rain = 0
KQU1 171130Z 18006KT 06/01 A3004 RMK A01 T00570005  RH  069%=      5-min Rain = 0
KQU1 171131Z 18005KT 06/01 A3004 RMK A01 T00570005  RH  069%=      5-min Rain = 0
KQU1 171132Z 18005KT 06/01 A3004 RMK A01 T00580005  RH  069%=      5-min Rain = 0
KQU1 171133Z 20003KT 06/01 A3004 RMK A01 T00580005  RH  069%=      5-min Rain = 0
KQU1 171134Z 22002KT 06/01 A3004 RMK A01 T00580005  RH  068%=      5-min Rain = 0
KQU1 171135Z 22001KT 06/00 A3004 RMK A01 T00580004  RH  068%=      5-min Rain = 0
KQU1 171136Z 22000KT 06/00 A3004 RMK A01 T00580004  RH  069%=      5-min Rain = 0
KQU1 171137Z 00000KT 06/00 A3004 RMK A01 T00570004  RH  069%=      5-min Rain = 0
KQU1 171138Z 31001KT 06/00 A3004 RMK A01 T00570004  RH  069%=      5-min Rain = 0
KQU1 171139Z 32002KT 06/00 A3004 RMK A01 T00570004  RH  069%=      5-min Rain = 0
KQU1 171140Z 34003KT 06/01 A3004 RMK A01 T00570005  RH  069%=      5-min Rain = 0
KQU1 171141Z 33003KT 06/01 A3004 RMK A01 T00560005  RH  070%=      5-min Rain = 0
KQU1 171142Z 34003KT 06/01 A3004 RMK A01 T00560005  RH  070%=      5-min Rain = 0
KQU1 171143Z 31002KT 06/01 A3005 RMK A01 T00550005  RH  070%=      5-min Rain = 0
KQU1 171144Z 27003KT 06/01 A3004 RMK A01 T00570005  RH  069%=      5-min Rain = 0
KQU1 171145Z 28003KT 06/01 A3004 RMK A01 T00590005  RH  069%=      5-min Rain = 0
KQU1 171146Z 25003KT 06/01 A3005 RMK A01 T00590005  RH  068%=      5-min Rain = 0
KQU1 171147Z 25002KT 06/01 A3005 RMK A01 T00600005  RH  068%=      5-min Rain = 0
KQU1 171148Z 24002KT 06/01 A3004 RMK A01 T00600005  RH  068%=      5-min Rain = 0
KQU1 171149Z 24002KT 06/01 A3004 RMK A01 T00610005  RH  067%=      5-min Rain = 0
KQU1 171150Z 25003KT 06/01 A3004 RMK A01 T00610005  RH  067%=      5-min Rain = 0
KQU1 171151Z 24003KT 06/01 A3004 RMK A01 T00610005  RH  067%=      5-min Rain = 0
KQU1 171152Z 23002KT 06/00 A3004 RMK A01 T00620004  RH  067%=      5-min Rain = 0
KQU1 171153Z 24003KT 06/00 A3005 RMK A01 T00620004  RH  066%=      5-min Rain = 0
KQU1 171154Z 23003KT 06/00 A3005 RMK A01 T00620004  RH  066%=      5-min Rain = 0
KQU1 171155Z 24002KT 06/00 A3005 RMK A01 T00610003  RH  066%=      5-min Rain = 0
KQU1 171156Z 23003KT 06/00 A3005 RMK A01 T00610003  RH  066%=      5-min Rain = 0
KQU1 171157Z 21002KT 06/00 A3004 RMK A01 T00620004  RH  066%=      5-min Rain = 0
KQU1 171158Z 20003KT 06/00 A3004 RMK A01 T00630004  RH  066%=      5-min Rain = 0
KQU1 171159Z 20003KT 06/00 A3004 RMK A01 T00630004  RH  065%=      5-min Rain = 0
KQU1 171200Z 19002KT 06/00 A3004 RMK A01 T00640004  RH  065%=      5-min Rain = 0
KQU1 171201Z 19002KT 07/00 A3004 RMK A01 T00650003  RH  065%=      5-min Rain = 0
KQU1 171202Z 19002KT 07/00 A3004 RMK A01 T00650003  RH  065%=      5-min Rain = 0
KQU1 171203Z 20002KT 07/00 A3004 RMK A01 T00650003  RH  065%=      5-min Rain = 0
KQU1 171204Z 20001KT 07/00 A3004 RMK A01 T00650003  RH  064%=      5-min Rain = 0
KQU1 171205Z 19001KT 07/00 A3004 RMK A01 T00650002  RH  064%=      5-min Rain = 0
KQU1 171206Z 19002KT 06/00 A3004 RMK A01 T00640002  RH  064%=      5-min Rain = 0
KQU1 171207Z 19002KT 06/00 A3004 RMK A01 T00640002  RH  064%=      5-min Rain = 0
KQU1 171208Z 18002KT 06/00 A3004 RMK A01 T00630001  RH  065%=      5-min Rain = 0
KQU1 171209Z 18002KT 06/00 A3004 RMK A01 T00630001  RH  065%=      5-min Rain = 0
KQU1 171210Z 19002KT 06/00 A3004 RMK A01 T00620001  RH  065%=      5-min Rain = 0
KQU1 171211Z 19001KT 06/00 A3004 RMK A01 T00620001  RH  065%=      5-min Rain = 0
KQU1 171212Z 20001KT 06/00 A3004 RMK A01 T00620001  RH  065%=      5-min Rain = 0
KQU1 171213Z 20002KT 06/00 A3004 RMK A01 T00620001  RH  065%=      5-min Rain = 0
KQU1 171214Z 23002KT 06/00 A3004 RMK A01 T00620001  RH  065%=      5-min Rain = 0
KQU1 171215Z 23001KT 06/00 A3004 RMK A01 T00620001  RH  065%=      5-min Rain = 0
KQU1 171216Z 28002KT 06/00 A3004 RMK A01 T00630001  RH  065%=      5-min Rain = 0
KQU1 171217Z 28003KT 06/00 A3004 RMK A01 T00630001  RH  064%=      5-min Rain = 0
KQU1 171218Z 28003KT 06/00 A3004 RMK A01 T00630001  RH  064%=      5-min Rain = 0
KQU1 171219Z 28003KT 06/00 A3004 RMK A01 T00620000  RH  065%=      5-min Rain = 0
KQU1 171220Z 27003KT 06/00 A3004 RMK A01 T00610000  RH  065%=      5-min Rain = 0
KQU1 171221Z 25004KT 06/00 A3004 RMK A01 T00610000  RH  065%=      5-min Rain = 0
KQU1 171222Z 25004KT 06/00 A3004 RMK A01 T00620001  RH  065%=      5-min Rain = 0
KQU1 171223Z 25004KT 06/00 A3004 RMK A01 T00640003  RH  065%=      5-min Rain = 0
KQU1 171224Z 25004KT 07/00 A3004 RMK A01 T00650004  RH  065%=      5-min Rain = 0
KQU1 171225Z 24004KT 07/00 A3004 RMK A01 T00650004  RH  065%=      5-min Rain = 0
KQU1 171226Z 23004KT 07/00 A3004 RMK A01 T00650003  RH  065%=      5-min Rain = 0
KQU1 171227Z 23004KT 06/00 A3004 RMK A01 T00640002  RH  065%=      5-min Rain = 0
KQU1 171228Z 23004KT 06/00 A3004 RMK A01 T00630002  RH  065%=      5-min Rain = 0
KQU1 171229Z 24004KT 06/00 A3004 RMK A01 T00620001  RH  065%=      5-min Rain = 0
KQU1 171230Z 24004KT 06/00 A3004 RMK A01 T00610001  RH  065%=      5-min Rain = 0
KQU1 171231Z 23004KT 06/00 A3004 RMK A01 T00610001  RH  065%=      5-min Rain = 0
KQU1 171232Z 23004KT 06/00 A3004 RMK A01 T00610001  RH  065%=      5-min Rain = 0
KQU1 171233Z 22003KT 06/00 A3004 RMK A01 T00610001  RH  065%=      5-min Rain = 0
KQU1 171234Z 22003KT 06/00 A3004 RMK A01 T00610001  RH  065%=      5-min Rain = 0
KQU1 171235Z 22004KT 06/00 A3004 RMK A01 T00620001  RH  065%=      5-min Rain = 0
KQU1 171236Z 22004KT 06/00 A3004 RMK A01 T00620001  RH  065%=      5-min Rain = 0
KQU1 171237Z 22003KT 06/00 A3004 RMK A01 T00630001  RH  065%=      5-min Rain = 0
KQU1 171238Z 22004KT 06/00 A3004 RMK A01 T00620000  RH  065%=      5-min Rain = 0
KQU1 171239Z 21004KT 06/00 A3004 RMK A01 T006000-0  RH  065%=      5-min Rain = 0
KQU1 171240Z 22004KT 06/00 A3004 RMK A01 T005900-0  RH  066%=      5-min Rain = 0
KQU1 171241Z 21004KT 06/M00 A3004 RMK A01 T00581001  RH  066%=      5-min Rain = 0
KQU1 171242Z 20005KT 06/M00 A3004 RMK A01 T00571001  RH  066%=      5-min Rain = 0
KQU1 171243Z 20006KT 06/M00 A3003 RMK A01 T00571001  RH  067%=      5-min Rain = 0
KQU1 171244Z 19007KT 06/00 A3003 RMK A01 T005600-0  RH  067%=      5-min Rain = 0
KQU1 171245Z 19008KT 06/00 A3003 RMK A01 T005500-0  RH  068%=      5-min Rain = 0
KQU1 171246Z 19008KT 05/00 A3003 RMK A01 T005400-0  RH  068%=      5-min Rain = 0
KQU1 171247Z 18009KT 05/00 A3003 RMK A01 T00530000  RH  069%=      5-min Rain = 0
KQU1 171248Z 18009KT 05/00 A3003 RMK A01 T00520001  RH  069%=      5-min Rain = 0
KQU1 171249Z 19009KT 05/00 A3003 RMK A01 T00530002  RH  070%=      5-min Rain = 0
KQU1 171250Z 18009KT 05/00 A3003 RMK A01 T00540004  RH  070%=      5-min Rain = 0
KQU1 171251Z 19009KT 06/01 A3003 RMK A01 T00550005  RH  070%=      5-min Rain = 0
KQU1 171252Z 19010KT 06/01 A3003 RMK A01 T00570005  RH  069%=      5-min Rain = 0
KQU1 171253Z 19010KT 06/01 A3003 RMK A01 T00580005  RH  069%=      5-min Rain = 0
KQU1 171254Z 19010KT 06/01 A3003 RMK A01 T00600006  RH  068%=      5-min Rain = 0
KQU1 171255Z 19010KT 06/01 A3003 RMK A01 T00620007  RH  068%=      5-min Rain = 0
KQU1 171256Z 19010KT 06/01 A3003 RMK A01 T00640008  RH  067%=      5-min Rain = 0
KQU1 171257Z 19010KT 07/01 A3003 RMK A01 T00660008  RH  066%=      5-min Rain = 0
KQU1 171258Z 19010KT 07/01 A3003 RMK A01 T00680008  RH  066%=      5-min Rain = 0
KQU1 171259Z 19010KT 07/01 A3003 RMK A01 T00700008  RH  065%=      5-min Rain = 0
KQU1 171300Z 19010KT 07/01 A3003 RMK A01 T00710008  RH  065%=      5-min Rain = 0
KQU1 171301Z 19009KT 07/01 A3003 RMK A01 T00710008  RH  064%=      5-min Rain = 0
KQU1 171302Z 19009KT 07/01 A3003 RMK A01 T00710008  RH  064%=      5-min Rain = 0
KQU1 171303Z 19009KT 07/01 A3003 RMK A01 T00710008  RH  064%=      5-min Rain = 0
KQU1 171304Z 19009KT 07/01 A3003 RMK A01 T00700007  RH  064%=      5-min Rain = 0
KQU1 171305Z 19009KT 07/01 A3003 RMK A01 T00690007  RH  064%=      5-min Rain = 0
KQU1 171306Z 19010KT 07/01 A3003 RMK A01 T00680007  RH  065%=      5-min Rain = 0
KQU1 171307Z 19010KT 07/01 A3003 RMK A01 T00680006  RH  065%=      5-min Rain = 0
KQU1 171308Z 20010KT 07/01 A3003 RMK A01 T00670006  RH  065%=      5-min Rain = 0
KQU1 171309Z 20010KT 07/01 A3003 RMK A01 T00660007  RH  066%=      5-min Rain = 0
KQU1 171310Z 20010KT 07/01 A3003 RMK A01 T00660007  RH  066%=      5-min Rain = 0
KQU1 171311Z 20009KT 07/01 A3003 RMK A01 T00670008  RH  066%=      5-min Rain = 0
KQU1 171312Z 20010KT 07/01 A3003 RMK A01 T00680008  RH  066%=      5-min Rain = 0
KQU1 171313Z 20010KT 07/01 A3002 RMK A01 T00680008  RH  066%=      5-min Rain = 0
KQU1 171314Z 19010KT 07/01 A3002 RMK A01 T00690009  RH  065%=      5-min Rain = 0
KQU1 171315Z 19010KT 07/01 A3002 RMK A01 T00700009  RH  065%=      5-min Rain = 0
KQU1 171316Z 19009KT 07/01 A3002 RMK A01 T00710010  RH  065%=      5-min Rain = 0
KQU1 171317Z 20009KT 07/01 A3002 RMK A01 T00710010  RH  065%=      5-min Rain = 0
KQU1 171318Z 20009KT 07/01 A3002 RMK A01 T00720010  RH  065%=      5-min Rain = 0
KQU1 171319Z 20009KT 07/01 A3002 RMK A01 T00720011  RH  065%=      5-min Rain = 0
KQU1 171320Z 20009KT 07/01 A3003 RMK A01 T00730012  RH  065%=      5-min Rain = 0
KQU1 171321Z 20009KT 07/01 A3003 RMK A01 T00730013  RH  066%=      5-min Rain = 0
KQU1 171322Z 19008KT 07/01 A3003 RMK A01 T00730013  RH  066%=      5-min Rain = 0
KQU1 171323Z 19008KT 07/01 A3003 RMK A01 T00730014  RH  066%=      5-min Rain = 0
KQU1 171324Z 19008KT 07/02 A3003 RMK A01 T00740015  RH  066%=      5-min Rain = 0
KQU1 171325Z 19008KT 08/02 A3003 RMK A01 T00750015  RH  066%=      5-min Rain = 0
KQU1 171326Z 19008KT 08/02 A3003 RMK A01 T00750016  RH  066%=      5-min Rain = 0
KQU1 171327Z 19008KT 08/02 A3003 RMK A01 T00760017  RH  066%=      5-min Rain = 0
KQU1 171328Z 19008KT 08/02 A3003 RMK A01 T00770018  RH  066%=      5-min Rain = 0
KQU1 171329Z 19008KT 08/02 A3003 RMK A01 T00790019  RH  066%=      5-min Rain = 0
KQU1 171330Z 19007KT 08/02 A3003 RMK A01 T00800020  RH  066%=      5-min Rain = 0
KQU1 171331Z 19007KT 08/02 A3003 RMK A01 T00810020  RH  065%=      5-min Rain = 0
KQU1 171332Z 19005KT 08/02 A3003 RMK A01 T00830021  RH  065%=      5-min Rain = 0
KQU1 171333Z 19005KT 09/02 A3003 RMK A01 T00850022  RH  065%=      5-min Rain = 0
KQU1 171334Z 19004KT 09/02 A3003 RMK A01 T00860024  RH  065%=      5-min Rain = 0
KQU1 171335Z 18003KT 09/03 A3003 RMK A01 T00880025  RH  065%=      5-min Rain = 0
KQU1 171336Z 19002KT 09/03 A3003 RMK A01 T00900026  RH  064%=      5-min Rain = 0
KQU1 171337Z 18002KT 09/03 A3003 RMK A01 T00920027  RH  064%=      5-min Rain = 0
KQU1 171338Z 17002KT 09/03 A3003 RMK A01 T00930029  RH  064%=      5-min Rain = 0
KQU1 171339Z 16002KT 10/03 A3003 RMK A01 T00950031  RH  064%=      5-min Rain = 0
KQU1 171340Z 17003KT 10/03 A3003 RMK A01 T00980032  RH  064%=      5-min Rain = 0
KQU1 171341Z 17004KT 10/03 A3003 RMK A01 T01000032  RH  062%=      5-min Rain = 0
KQU1 171342Z 16005KT 10/03 A3003 RMK A01 T01020032  RH  062%=      5-min Rain = 0
KQU1 171343Z 17006KT 10/03 A3003 RMK A01 T01040030  RH  060%=      5-min Rain = 0
KQU1 171344Z 16005KT 11/03 A3003 RMK A01 T01050030  RH  060%=      5-min Rain = 0
KQU1 171345Z 17006KT 11/03 A3003 RMK A01 T01050031  RH  060%=      5-min Rain = 0
KQU1 171346Z 17007KT 11/03 A3003 RMK A01 T01060031  RH  060%=      5-min Rain = 0
KQU1 171347Z 17008KT 11/03 A3003 RMK A01 T01060030  RH  059%=      5-min Rain = 0
KQU1 171348Z 17009KT 11/03 A3003 RMK A01 T01060031  RH  059%=      5-min Rain = 0
KQU1 171349Z 17009KT 11/03 A3003 RMK A01 T01070031  RH  059%=      5-min Rain = 0
KQU1 171350Z 17008KT 11/03 A3003 RMK A01 T01070030  RH  059%=      5-min Rain = 0
KQU1 171351Z 17009KT 11/03 A3003 RMK A01 T01080031  RH  059%=      5-min Rain = 0
KQU1 171352Z 17008KT 11/03 A3003 RMK A01 T01080030  RH  059%=      5-min Rain = 0
KQU1 171353Z 17008KT 11/03 A3003 RMK A01 T01090031  RH  058%=      5-min Rain = 0
KQU1 171354Z 17008KT 11/03 A3003 RMK A01 T01100032  RH  059%=      5-min Rain = 0
KQU1 171355Z 17008KT 11/03 A3003 RMK A01 T01100031  RH  058%=      5-min Rain = 0
KQU1 171356Z 17008KT 11/03 A3003 RMK A01 T01110031  RH  058%=      5-min Rain = 0
KQU1 171357Z 18007KT 11/03 A3003 RMK A01 T01120032  RH  058%=      5-min Rain = 0
KQU1 171358Z 18007KT 11/03 A3003 RMK A01 T01120031  RH  057%=      5-min Rain = 0
KQU1 171359Z 18006KT 11/03 A3003 RMK A01 T01130032  RH  057%=      5-min Rain = 0
KQU1 171400Z 18007KT 12/03 A3003 RMK A01 T01150032  RH  057%=      5-min Rain = 0
KQU1 171401Z 18006KT 12/03 A3003 RMK A01 T01160032  RH  056%=      5-min Rain = 0
KQU1 171402Z 18006KT 12/03 A3003 RMK A01 T01160031  RH  056%=      5-min Rain = 0
KQU1 171403Z 18005KT 12/03 A3003 RMK A01 T01170032  RH  056%=      5-min Rain = 0
KQU1 171404Z 18006KT 12/03 A3003 RMK A01 T01180032  RH  055%=      5-min Rain = 0
KQU1 171405Z 18006KT 12/03 A3004 RMK A01 T01190031  RH  055%=      5-min Rain = 0
KQU1 171406Z 18007KT 12/03 A3004 RMK A01 T01200032  RH  055%=      5-min Rain = 0
KQU1 171407Z 18006KT 12/03 A3004 RMK A01 T01200032  RH  055%=      5-min Rain = 0
KQU1 171408Z 18006KT 12/03 A3004 RMK A01 T01210033  RH  055%=      5-min Rain = 0
KQU1 171409Z 18006KT 12/03 A3004 RMK A01 T01220033  RH  055%=      5-min Rain = 0
KQU1 171410Z 19005KT 12/03 A3004 RMK A01 T01230033  RH  054%=      5-min Rain = 0
KQU1 171411Z 19004KT 12/03 A3004 RMK A01 T01240034  RH  054%=      5-min Rain = 0
KQU1 171412Z 19004KT 13/03 A3004 RMK A01 T01250034  RH  054%=      5-min Rain = 0
KQU1 171413Z 18004KT 13/03 A3004 RMK A01 T01260034  RH  054%=      5-min Rain = 0
KQU1 171414Z 19004KT 13/03 A3004 RMK A01 T01260034  RH  053%=      5-min Rain = 0
KQU1 171415Z 18004KT 13/03 A3004 RMK A01 T01270034  RH  053%=      5-min Rain = 0
KQU1 171416Z 19004KT 13/03 A3004 RMK A01 T01280034  RH  053%=      5-min Rain = 0
KQU1 171417Z 18003KT 13/04 A3004 RMK A01 T01280035  RH  053%=      5-min Rain = 0
KQU1 171418Z 18004KT 13/04 A3004 RMK A01 T01300036  RH  053%=      5-min Rain = 0
KQU1 171419Z 17004KT 13/04 A3004 RMK A01 T01300035  RH  052%=      5-min Rain = 0
KQU1 171420Z 18005KT 13/04 A3004 RMK A01 T01310036  RH  052%=      5-min Rain = 0
KQU1 171421Z 16006KT 13/04 A3004 RMK A01 T01310035  RH  052%=      5-min Rain = 0
KQU1 171422Z 16006KT 13/04 A3004 RMK A01 T01320036  RH  052%=      5-min Rain = 0
KQU1 171423Z 16007KT 13/03 A3005 RMK A01 T01330034  RH  051%=      5-min Rain = 0
KQU1 171424Z 15007KT 13/03 A3005 RMK A01 T01330034  RH  051%=      5-min Rain = 0
KQU1 171425Z 14007KT 13/03 A3005 RMK A01 T01330032  RH  050%=      5-min Rain = 0
KQU1 171426Z 15007KT 13/03 A3005 RMK A01 T01330032  RH  050%=      5-min Rain = 0
KQU1 171427Z 15006KT 13/03 A3005 RMK A01 T01330031  RH  050%=      5-min Rain = 0
KQU1 171428Z 15007KT 13/03 A3005 RMK A01 T01330032  RH  050%=      5-min Rain = 0
KQU1 171429Z 15007KT 13/03 A3005 RMK A01 T01330028  RH  049%=      5-min Rain = 0
KQU1 171430Z 15008KT 13/03 A3005 RMK A01 T01310027  RH  049%=      5-min Rain = 0
KQU1 171431Z 15008KT 13/03 A3005 RMK A01 T01310028  RH  050%=      5-min Rain = 0
KQU1 171432Z 15008KT 13/03 A3005 RMK A01 T01300025  RH  049%=      5-min Rain = 0
KQU1 171433Z 15008KT 13/03 A3005 RMK A01 T01290025  RH  049%=      5-min Rain = 0
KQU1 171434Z 14007KT 13/03 A3005 RMK A01 T01290026  RH  050%=      5-min Rain = 0
KQU1 171435Z 14008KT 13/03 A3005 RMK A01 T01290025  RH  049%=      5-min Rain = 0
KQU1 171436Z 15007KT 13/02 A3005 RMK A01 T01300024  RH  049%=      5-min Rain = 0
KQU1 171437Z 15008KT 13/02 A3005 RMK A01 T01300024  RH  049%=      5-min Rain = 0
KQU1 171438Z 15006KT 13/02 A3005 RMK A01 T01300024  RH  049%=      5-min Rain = 0
KQU1 171439Z 14007KT 13/03 A3005 RMK A01 T01300029  RH  050%=      5-min Rain = 0
KQU1 171440Z 14007KT 13/03 A3005 RMK A01 T01310030  RH  050%=      5-min Rain = 0
KQU1 171441Z 14006KT 13/03 A3005 RMK A01 T01320030  RH  050%=      5-min Rain = 0
KQU1 171442Z 15007KT 13/03 A3005 RMK A01 T01310029  RH  050%=      5-min Rain = 0
KQU1 171443Z 15007KT 13/03 A3005 RMK A01 T01310030  RH  050%=      5-min Rain = 0
KQU1 171444Z 15008KT 13/03 A3005 RMK A01 T01310027  RH  049%=      5-min Rain = 0
KQU1 171445Z 15007KT 13/03 A3005 RMK A01 T01300027  RH  050%=      5-min Rain = 0
KQU1 171446Z 15008KT 13/03 A3005 RMK A01 T01310029  RH  050%=      5-min Rain = 0
KQU1 171447Z 16006KT 13/03 A3005 RMK A01 T01310029  RH  050%=      5-min Rain = 0
KQU1 171448Z 16007KT 13/03 A3005 RMK A01 T01320028  RH  049%=      5-min Rain = 0
KQU1 171449Z 16007KT 13/03 A3005 RMK A01 T01320030  RH  050%=      5-min Rain = 0
KQU1 171450Z 16007KT 13/03 A3005 RMK A01 T01320029  RH  050%=      5-min Rain = 0
KQU1 171451Z 17006KT 13/03 A3005 RMK A01 T01320031  RH  050%=      5-min Rain = 0
KQU1 171452Z 16005KT 13/03 A3005 RMK A01 T01320034  RH  051%=      5-min Rain = 0
KQU1 171453Z 17006KT 13/03 A3004 RMK A01 T01330033  RH  051%=      5-min Rain = 0
KQU1 171454Z 17006KT 13/03 A3004 RMK A01 T01340034  RH  051%=      5-min Rain = 0
KQU1 171455Z 18006KT 13/03 A3004 RMK A01 T01340034  RH  051%=      5-min Rain = 0
KQU1 171456Z 17005KT 14/04 A3004 RMK A01 T01350035  RH  051%=      5-min Rain = 0
KQU1 171457Z 16006KT 14/04 A3004 RMK A01 T01360037  RH  051%=      5-min Rain = 0
KQU1 171458Z 17007KT 14/04 A3004 RMK A01 T01380036  RH  050%=      5-min Rain = 0
KQU1 171459Z 17006KT 14/04 A3004 RMK A01 T01390036  RH  050%=      5-min Rain = 0
KQU1 171500Z 17006KT 14/04 A3004 RMK A01 T01390036  RH  050%=      5-min Rain = 0
KQU1 171501Z 17007KT 14/04 A3004 RMK A01 T01400037  RH  050%=      5-min Rain = 0
KQU1 171502Z 18008KT 14/04 A3004 RMK A01 T01420037  RH  050%=      5-min Rain = 0
KQU1 171503Z 19006KT 14/04 A3004 RMK A01 T01420038  RH  049%=      5-min Rain = 0
KQU1 171504Z 18006KT 14/04 A3004 RMK A01 T01440039  RH  049%=      5-min Rain = 0
KQU1 171505Z 18006KT 14/04 A3004 RMK A01 T01440037  RH  048%=      5-min Rain = 0
KQU1 171506Z 18005KT 15/04 A3004 RMK A01 T01450038  RH  049%=      5-min Rain = 0
KQU1 171507Z 18006KT 15/04 A3004 RMK A01 T01460039  RH  049%=      5-min Rain = 0
KQU1 171508Z 18007KT 15/04 A3004 RMK A01 T01470039  RH  049%=      5-min Rain = 0
KQU1 171509Z 18006KT 15/04 A3004 RMK A01 T01470041  RH  049%=      5-min Rain = 0
KQU1 171510Z 18006KT 15/04 A3004 RMK A01 T01490042  RH  049%=      5-min Rain = 0
KQU1 171511Z 19008KT 15/04 A3004 RMK A01 T01500040  RH  048%=      5-min Rain = 0
KQU1 171512Z 18007KT 15/04 A3004 RMK A01 T01500040  RH  048%=      5-min Rain = 0
KQU1 171513Z 18006KT 15/04 A3004 RMK A01 T01510042  RH  048%=      5-min Rain = 0
KQU1 171514Z 18007KT 15/04 A3004 RMK A01 T01520043  RH  048%=      5-min Rain = 0
KQU1 171515Z 18007KT 15/05 A3004 RMK A01 T01540045  RH  048%=      5-min Rain = 0
KQU1 171516Z 19010KT 16/05 A3004 RMK A01 T01560046  RH  048%=      5-min Rain = 0
KQU1 171517Z 19008KT 16/05 A3004 RMK A01 T01590050  RH  048%=      5-min Rain = 0
KQU1 171518Z 20009KT 16/05 A3004 RMK A01 T01630049  RH  047%=      5-min Rain = 0
KQU1 171519Z 19010KT 17/05 A3004 RMK A01 T01660048  RH  045%=      5-min Rain = 0
KQU1 171520Z 20010KT 17/05 A3004 RMK A01 T01680046  RH  045%=      5-min Rain = 0
KQU1 171521Z 20009KT 17/05 A3004 RMK A01 T01690046  RH  044%=      5-min Rain = 0
KQU1 171522Z 20009KT 17/05 A3004 RMK A01 T01700048  RH  044%=      5-min Rain = 0
KQU1 171523Z 20012KT 17/05 A3003 RMK A01 T01730047  RH  043%=      5-min Rain = 0
KQU1 171524Z 20010KT 17/05 A3003 RMK A01 T01740046  RH  043%=      5-min Rain = 0
KQU1 171525Z 20011KT 18/05 A3003 RMK A01 T01760047  RH  043%=      5-min Rain = 0
KQU1 171526Z 20013G19KT 18/05 A3003 RMK A01 T01770045  RH  042%=      5-min Rain = 0
KQU1 171527Z 22014KT 18/04 A3003 RMK A01 T01800044  RH  040%=      5-min Rain = 0
KQU1 171528Z 22015G21KT 18/04 A3003 RMK A01 T01810037  RH  038%=      5-min Rain = 0
KQU1 171529Z 21019G25KT 18/04 A3003 RMK A01 T01820037  RH  038%=      5-min Rain = 0
KQU1 171530Z 22019KT 18/03 A3003 RMK A01 T01830033  RH  037%=      5-min Rain = 0
KQU1 171531Z 22019KT 18/03 A3003 RMK A01 T01840034  RH  037%=      5-min Rain = 0
KQU1 171532Z 21018KT 18/03 A3003 RMK A01 T01840032  RH  036%=      5-min Rain = 0
KQU1 171533Z 21017KT 18/03 A3003 RMK A01 T01840032  RH  036%=      5-min Rain = 0
KQU1 171534Z 22015KT 18/03 A3003 RMK A01 T01830033  RH  037%=      5-min Rain = 0
KQU1 171535Z 22012G18KT 18/04 A3003 RMK A01 T01840037  RH  038%=      5-min Rain = 0
KQU1 171536Z 22015KT 19/03 A3003 RMK A01 T01860034  RH  036%=      5-min Rain = 0
KQU1 171537Z 22016KT 19/03 A3003 RMK A01 T01860032  RH  036%=      5-min Rain = 0
KQU1 171538Z 22014KT 19/03 A3003 RMK A01 T01870033  RH  036%=      5-min Rain = 0
KQU1 171539Z 22015G20KT 19/03 A3003 RMK A01 T01880034  RH  036%=      5-min Rain = 0
KQU1 171540Z 21015KT 19/03 A3003 RMK A01 T01880031  RH  035%=      5-min Rain = 0
KQU1 171541Z 22013KT 19/03 A3003 RMK A01 T01880034  RH  036%=      5-min Rain = 0
KQU1 171542Z 21014KT 19/03 A3003 RMK A01 T01890034  RH  036%=      5-min Rain = 0
KQU1 171543Z 23015KT 19/03 A3003 RMK A01 T01900033  RH  035%=      5-min Rain = 0
KQU1 171544Z 23018KT 19/03 A3003 RMK A01 T01900028  RH  034%=      5-min Rain = 0
KQU1 171545Z 24015KT 19/03 A3003 RMK A01 T01900029  RH  034%=      5-min Rain = 0
KQU1 171546Z 23015KT 19/03 A3003 RMK A01 T01920030  RH  034%=      5-min Rain = 0
KQU1 171547Z 22014KT 19/03 A3002 RMK A01 T01920028  RH  034%=      5-min Rain = 0
KQU1 171548Z 22014KT 19/03 A3002 RMK A01 T01920031  RH  034%=      5-min Rain = 0
KQU1 171549Z 23015KT 19/03 A3002 RMK A01 T01920031  RH  034%=      5-min Rain = 0
KQU1 171550Z 23015KT 19/03 A3002 RMK A01 T01930031  RH  034%=      5-min Rain = 0
KQU1 171551Z 22012KT 19/03 A3002 RMK A01 T01940031  RH  034%=      5-min Rain = 0
KQU1 171552Z 23014KT 20/03 A3002 RMK A01 T01950030  RH  034%=      5-min Rain = 0
KQU1 171553Z 24013KT 20/03 A3002 RMK A01 T01950030  RH  034%=      5-min Rain = 0
KQU1 171554Z 24010KT 20/04 A3002 RMK A01 T01960036  RH  035%=      5-min Rain = 0
KQU1 171555Z 23012KT 20/04 A3002 RMK A01 T01980035  RH  034%=      5-min Rain = 0
KQU1 171556Z 23012KT 20/03 A3002 RMK A01 T01980034  RH  034%=      5-min Rain = 0
KQU1 171557Z 24014KT 20/03 A3002 RMK A01 T01980033  RH  034%=      5-min Rain = 0
KQU1 171558Z 22011G16KT 20/04 A3002 RMK A01 T01980035  RH  034%=      5-min Rain = 0
KQU1 171559Z 22014KT 20/03 A3002 RMK A01 T01990033  RH  033%=      5-min Rain = 0
KQU1 171600Z 23012KT 20/04 A3002 RMK A01 T01990035  RH  034%=      5-min Rain = 0
KQU1 171601Z 24013KT 20/03 A3002 RMK A01 T02000033  RH  033%=      5-min Rain = 0
KQU1 171602Z 23011KT 20/03 A3001 RMK A01 T02020034  RH  033%=      5-min Rain = 0
KQU1 171603Z 23013G20KT 20/03 A3001 RMK A01 T02030032  RH  032%=      5-min Rain = 0
KQU1 171604Z 23018G24KT 20/03 A3001 RMK A01 T02030025  RH  031%=      5-min Rain = 0
KQU1 171605Z 23019G24KT 20/02 A3001 RMK A01 T02020022  RH  030%=      5-min Rain = 0
KQU1 171606Z 23022KT 20/02 A3001 RMK A01 T02010018  RH  030%=      5-min Rain = 0
KQU1 171607Z 23019G25KT 20/02 A3001 RMK A01 T02000019  RH  030%=      5-min Rain = 0
KQU1 171608Z 22017KT 20/02 A3001 RMK A01 T02010023  RH  031%=      5-min Rain = 0
KQU1 171609Z 22017KT 20/02 A3001 RMK A01 T02020023  RH  030%=      5-min Rain = 0
KQU1 171610Z 22019KT 20/03 A3001 RMK A01 T02030025  RH  031%=      5-min Rain = 0
KQU1 171611Z 22016KT 20/02 A3001 RMK A01 T02030024  RH  031%=      5-min Rain = 0
KQU1 171612Z 22018KT 20/03 A3001 RMK A01 T02030025  RH  031%=      5-min Rain = 0
KQU1 171613Z 22013KT 20/03 A3001 RMK A01 T02030026  RH  031%=      5-min Rain = 0
KQU1 171614Z 22015KT 21/03 A3001 RMK A01 T02050028  RH  031%=      5-min Rain = 0
KQU1 171615Z 22014KT 21/03 A3001 RMK A01 T02060026  RH  030%=      5-min Rain = 0
KQU1 171616Z 22012KT 21/03 A3001 RMK A01 T02070028  RH  031%=      5-min Rain = 0
KQU1 171617Z 22013KT 21/03 A3001 RMK A01 T02090028  RH  030%=      5-min Rain = 0
KQU1 171618Z 23013KT 21/03 A3001 RMK A01 T02100029  RH  030%=      5-min Rain = 0
KQU1 171619Z 23011KT 21/03 A3001 RMK A01 T02120031  RH  030%=      5-min Rain = 0
KQU1 171620Z 24014KT 21/03 A3001 RMK A01 T02130030  RH  030%=      5-min Rain = 0
KQU1 171621Z 23013G19KT 21/03 A3001 RMK A01 T02130029  RH  030%=      5-min Rain = 0
KQU1 171622Z 23016KT 21/03 A3001 RMK A01 T02130025  RH  029%=      5-min Rain = 0
KQU1 171623Z 23017KT 21/03 A3001 RMK A01 T02130025  RH  029%=      5-min Rain = 0
KQU1 171624Z 22016KT 21/03 A3001 RMK A01 T02130027  RH  029%=      5-min Rain = 0
KQU1 171625Z 22016KT 21/03 A3001 RMK A01 T02140026  RH  029%=      5-min Rain = 0
KQU1 171626Z 23016G21KT 21/03 A30 RMK A01 T02140027  RH  029%=      5-min Rain = 0
KQU1 171627Z 22016KT 21/03 A30 RMK A01 T02140027  RH  029%=      5-min Rain = 0
KQU1 171628Z 23016KT 21/03 A30 RMK A01 T02140027  RH  029%=      5-min Rain = 0
KQU1 171629Z 23017G22KT 21/03 A30 RMK A01 T02140026  RH  029%=      5-min Rain = 0
KQU1 171630Z 22015KT 21/03 A30 RMK A01 T02130028  RH  030%=      5-min Rain = 0
KQU1 171631Z 22017KT 21/03 A30 RMK A01 T02140027  RH  029%=      5-min Rain = 0
KQU1 171632Z 23016KT 21/03 A30 RMK A01 T02130028  RH  029%=      5-min Rain = 0
KQU1 171633Z 23015KT 21/03 A30 RMK A01 T02130029  RH  030%=      5-min Rain = 0
KQU1 171634Z 22015KT 21/03 A30 RMK A01 T02140032  RH  030%=      5-min Rain = 0
KQU1 171635Z 22018G23KT 22/03 A30 RMK A01 T02160033  RH  030%=      5-min Rain = 0
KQU1 171636Z 22017KT 22/03 A30 RMK A01 T02160031  RH  030%=      5-min Rain = 0
KQU1 171637Z 22016KT 22/03 A30 RMK A01 T02160033  RH  030%=      5-min Rain = 0
KQU1 171638Z 22015G20KT 22/04 A30 RMK A01 T02180036  RH  030%=      5-min Rain = 0
KQU1 171639Z 22017KT 22/03 A30 RMK A01 T02190034  RH  030%=      5-min Rain = 0
KQU1 171640Z 21019KT 22/03 A30 RMK A01 T02190034  RH  030%=      5-min Rain = 0
KQU1 171641Z 21020KT 22/03 A30 RMK A01 T02190032  RH  029%=      5-min Rain = 0
KQU1 171642Z 22019KT 22/03 A30 RMK A01 T02180032  RH  029%=      5-min Rain = 0
KQU1 171643Z 21017KT 22/03 A30 RMK A01 T02180033  RH  030%=      5-min Rain = 0
KQU1 171644Z 20016G21KT 22/03 A30 RMK A01 T02190034  RH  030%=      5-min Rain = 0
KQU1 171645Z 21015KT 22/03 A30 RMK A01 T02190034  RH  030%=      5-min Rain = 0
KQU1 171646Z 22013KT 22/03 A30 RMK A01 T02190034  RH  030%=      5-min Rain = 0
KQU1 171647Z 21014KT 22/04 A30 RMK A01 T02200035  RH  030%=      5-min Rain = 0
KQU1 171648Z 22016KT 22/04 A30 RMK A01 T02210038  RH  030%=      5-min Rain = 0
KQU1 171649Z 21015KT 22/04 A30 RMK A01 T02230040  RH  030%=      5-min Rain = 0
KQU1 171650Z 20016KT 22/04 A30 RMK A01 T02240039  RH  030%=      5-min Rain = 0
KQU1 171651Z 21015KT 22/04 A30 RMK A01 T02240040  RH  030%=      5-min Rain = 0
KQU1 171652Z 21017KT 22/04 A30 RMK A01 T02240037  RH  029%=      5-min Rain = 0
KQU1 171653Z 21014KT 22/04 A30 RMK A01 T02230038  RH  030%=      5-min Rain = 0
KQU1 171654Z 20013KT 22/04 A30 RMK A01 T02240042  RH  030%=      5-min Rain = 0
KQU1 171655Z 21017KT 23/04 A2999 RMK A01 T02250037  RH  029%=      5-min Rain = 0
KQU1 171656Z 20014KT 23/04 A2999 RMK A01 T02250039  RH  030%=      5-min Rain = 0
KQU1 171657Z 19014KT 23/04 A2999 RMK A01 T02250039  RH  030%=      5-min Rain = 0
KQU1 171658Z 19015KT 23/04 A30 RMK A01 T02250037  RH  029%=      5-min Rain = 0
KQU1 171659Z 20014KT 23/04 A2999 RMK A01 T02250038  RH  029%=      5-min Rain = 0
KQU1 171700Z 19014KT 23/04 A2999 RMK A01 T02250038  RH  029%=      5-min Rain = 0
KQU1 171701Z 20012KT 23/04 A2999 RMK A01 T02250039  RH  030%=      5-min Rain = 0
KQU1 171702Z 20012KT 23/04 A2999 RMK A01 T02250038  RH  029%=      5-min Rain = 0
KQU1 171703Z 20009KT 23/04 A2999 RMK A01 T02250038  RH  029%=      5-min Rain = 0
KQU1 171704Z 19010KT 23/04 A2999 RMK A01 T02250042  RH  030%=      5-min Rain = 0
KQU1 171705Z 20010KT 23/04 A2999 RMK A01 T02270041  RH  030%=      5-min Rain = 0
KQU1 171706Z 21011KT 23/04 A2999 RMK A01 T02280043  RH  030%=      5-min Rain = 0
KQU1 171707Z 20012KT 23/04 A2999 RMK A01 T02280041  RH  029%=      5-min Rain = 0
KQU1 171708Z 18014KT 23/04 A2999 RMK A01 T02290043  RH  030%=      5-min Rain = 0
KQU1 171709Z 19012KT 23/04 A2999 RMK A01 T02290041  RH  029%=      5-min Rain = 0
KQU1 171710Z 18014KT 23/04 A2999 RMK A01 T02300042  RH  029%=      5-min Rain = 0
KQU1 171711Z 17012KT 23/04 A2999 RMK A01 T02300041  RH  029%=      5-min Rain = 0
KQU1 171712Z 18011KT 23/05 A2999 RMK A01 T02310045  RH  030%=      5-min Rain = 0
KQU1 171713Z 17015KT 23/04 A2999 RMK A01 T02320043  RH  029%=      5-min Rain = 0
KQU1 171714Z 17012KT 23/04 A2999 RMK A01 T02320043  RH  029%=      5-min Rain = 0
KQU1 171715Z 19012KT 23/04 A2999 RMK A01 T02340044  RH  029%=      5-min Rain = 0
KQU1 171716Z 18013G18KT 24/04 A2999 RMK A01 T02350044  RH  029%=      5-min Rain = 0
KQU1 171717Z 18014KT 23/04 A2999 RMK A01 T02340039  RH  028%=      5-min Rain = 0
KQU1 171718Z 19012KT 23/04 A2999 RMK A01 T02320039  RH  028%=      5-min Rain = 0
KQU1 171719Z 18011KT 23/04 A2999 RMK A01 T02330043  RH  029%=      5-min Rain = 0
KQU1 171720Z 18013KT 23/04 A2999 RMK A01 T02340041  RH  029%=      5-min Rain = 0
KQU1 171721Z 17010KT 23/04 A2999 RMK A01 T02340042  RH  029%=      5-min Rain = 0
KQU1 171722Z 20012KT 23/04 A2999 RMK A01 T02340042  RH  029%=      5-min Rain = 0
KQU1 171723Z 20012KT 24/04 A2999 RMK A01 T02350044  RH  029%=      5-min Rain = 0
KQU1 171724Z 21012KT 24/04 A2999 RMK A01 T02350036  RH  027%=      5-min Rain = 0
KQU1 171725Z 20012KT 23/04 A2999 RMK A01 T02340037  RH  028%=      5-min Rain = 0
KQU1 171726Z 19012KT 23/04 A2999 RMK A01 T02340035  RH  027%=      5-min Rain = 0
KQU1 171727Z 18012KT 23/04 A2999 RMK A01 T02340038  RH  028%=      5-min Rain = 0
KQU1 171728Z 18013KT 24/04 A2999 RMK A01 T02360040  RH  028%=      5-min Rain = 0
KQU1 171729Z 18014KT 24/04 A2999 RMK A01 T02380038  RH  027%=      5-min Rain = 0
KQU1 171730Z 20013KT 24/04 A2999 RMK A01 T02380035  RH  027%=      5-min Rain = 0
KQU1 171731Z 20012KT 24/04 A2999 RMK A01 T02380037  RH  027%=      5-min Rain = 0
KQU1 171732Z 20011KT 24/03 A2999 RMK A01 T02380034  RH  027%=      5-min Rain = 0
KQU1 171733Z 19012KT 24/04 A2999 RMK A01 T02370037  RH  027%=      5-min Rain = 0
KQU1 171734Z 19013KT 24/04 A2999 RMK A01 T02370037  RH  027%=      5-min Rain = 0
KQU1 171735Z 19013KT 24/03 A2999 RMK A01 T02360033  RH  027%=      5-min Rain = 0
KQU1 171736Z 19013KT 24/04 A2998 RMK A01 T02360035  RH  027%=      5-min Rain = 0
KQU1 171737Z 20012KT 24/04 A2998 RMK A01 T02370036  RH  027%=      5-min Rain = 0
KQU1 171738Z 20010KT 24/04 A2998 RMK A01 T02360036  RH  027%=      5-min Rain = 0
KQU1 171739Z 20008KT 24/04 A2998 RMK A01 T02370039  RH  028%=      5-min Rain = 0
KQU1 171740Z 19012G17KT 24/04 A2998 RMK A01 T02390041  RH  028%=      5-min Rain = 0
KQU1 171741Z 19013KT 24/04 A2998 RMK A01 T02410037  RH  026%=      5-min Rain = 0
KQU1 171742Z 19012KT 24/03 A2998 RMK A01 T02420034  RH  026%=      5-min Rain = 0
KQU1 171743Z 19012G17KT 24/03 A2998 RMK A01 T02420032  RH  026%=      5-min Rain = 0
KQU1 171744Z 20013KT 24/04 A2998 RMK A01 T02420037  RH  026%=      5-min Rain = 0
KQU1 171745Z 19013KT 24/03 A2998 RMK A01 T02430034  RH  026%=      5-min Rain = 0
KQU1 171746Z 19013KT 24/03 A2998 RMK A01 T02430032  RH  025%=      5-min Rain = 0
KQU1 171747Z 20012KT 24/03 A2998 RMK A01 T02430033  RH  026%=      5-min Rain = 0
KQU1 171748Z 20009KT 24/03 A2998 RMK A01 T02430034  RH  026%=      5-min Rain = 0
KQU1 171749Z 19011KT 24/04 A2998 RMK A01 T02440038  RH  026%=      5-min Rain = 0
KQU1 171750Z 20014KT 25/04 A2998 RMK A01 T02450036  RH  026%=      5-min Rain = 0
KQU1 171751Z 20011KT 24/03 A2998 RMK A01 T02440027  RH  024%=      5-min Rain = 0
KQU1 171752Z 21011KT 24/03 A2998 RMK A01 T02430026  RH  024%=      5-min Rain = 0
KQU1 171753Z 21009KT 24/03 A2998 RMK A01 T02420028  RH  025%=      5-min Rain = 0
KQU1 171754Z 21011KT 24/03 A2997 RMK A01 T02430033  RH  025%=      5-min Rain = 0
KQU1 171755Z 21009KT 25/04 A2997 RMK A01 T02450035  RH  026%=      5-min Rain = 0
KQU1 171756Z 21009KT 25/04 A2997 RMK A01 T02460035  RH  025%=      5-min Rain = 0
KQU1 171757Z 21010KT 25/03 A2997 RMK A01 T02460031  RH  025%=      5-min Rain = 0
KQU1 171758Z 19013KT 25/03 A2997 RMK A01 T02460026  RH  024%=      5-min Rain = 0
KQU1 171759Z 19013G18KT 25/02 A2997 RMK A01 T02460024  RH  024%=      5-min Rain = 0
KQU1 171800Z 20011G18KT 25/03 A2997 RMK A01 T02470028  RH  024%=      5-min Rain = 0
KQU1 171801Z 19011G16KT 25/03 A2997 RMK A01 T02490031  RH  024%=      5-min Rain = 0
KQU1 171802Z 18009KT 25/03 A2997 RMK A01 T02510034  RH  024%=      5-min Rain = 0
KQU1 171803Z 18012KT 25/03 A2997 RMK A01 T02520029  RH  023%=      5-min Rain = 0
KQU1 171804Z 19010KT 25/03 A2997 RMK A01 T02510030  RH  024%=      5-min Rain = 0
KQU1 171805Z 20012KT 25/03 A2997 RMK A01 T02520028  RH  023%=      5-min Rain = 0
KQU1 171806Z 20015KT 25/02 A2997 RMK A01 T02510020  RH  022%=      5-min Rain = 0
KQU1 171807Z 20016KT 25/02 A2997 RMK A01 T02500019  RH  022%=      5-min Rain = 0
KQU1 171808Z 20013KT 25/02 A2997 RMK A01 T02480019  RH  022%=      5-min Rain = 0
KQU1 171809Z 20013KT 25/02 A2997 RMK A01 T02490019  RH  022%=      5-min Rain = 0
KQU1 171810Z 20012KT 25/02 A2996 RMK A01 T02490021  RH  023%=      5-min Rain = 0
KQU1 171811Z 21012KT 25/02 A2996 RMK A01 T02490018  RH  022%=      5-min Rain = 0
KQU1 171812Z 20012KT 25/02 A2996 RMK A01 T02490024  RH  023%=      5-min Rain = 0
KQU1 171813Z 19010KT 25/02 A2996 RMK A01 T02490021  RH  023%=      5-min Rain = 0
KQU1 171814Z 21010KT 25/02 A2996 RMK A01 T02490021  RH  023%=      5-min Rain = 0
KQU1 171815Z 22013KT 25/02 A2996 RMK A01 T02490022  RH  023%=      5-min Rain = 0
KQU1 171816Z 22014KT 25/02 A2996 RMK A01 T02490022  RH  023%=      5-min Rain = 0
KQU1 171817Z 22013KT 25/02 A2996 RMK A01 T02490024  RH  023%=      5-min Rain = 0
KQU1 171818Z 21010KT 25/02 A2995 RMK A01 T02490024  RH  023%=      5-min Rain = 0
KQU1 171819Z 21010KT 25/02 A2995 RMK A01 T02490023  RH  023%=      5-min Rain = 0
KQU1 171820Z 20011KT 25/03 A2995 RMK A01 T02490029  RH  024%=      5-min Rain = 0
KQU1 171821Z 20010G15KT 25/03 A2995 RMK A01 T02510029  RH  024%=      5-min Rain = 0
KQU1 171822Z 21010G15KT 25/03 A2995 RMK A01 T02530026  RH  023%=      5-min Rain = 0
KQU1 171823Z 19012KT 25/03 A2995 RMK A01 T02530030  RH  024%=      5-min Rain = 0
KQU1 171824Z 18013KT 25/03 A2995 RMK A01 T02540033  RH  024%=      5-min Rain = 0
KQU1 171825Z 17014KT 25/03 A2995 RMK A01 T02530031  RH  024%=      5-min Rain = 0
KQU1 171826Z 17012KT 25/03 A2995 RMK A01 T02520032  RH  024%=      5-min Rain = 0
KQU1 171827Z 17011KT 25/03 A2995 RMK A01 T02520033  RH  024%=      5-min Rain = 0
KQU1 171828Z 17012KT 25/03 A2995 RMK A01 T02530033  RH  024%=      5-min Rain = 0
KQU1 171829Z 17012KT 25/03 A2995 RMK A01 T02530032  RH  024%=      5-min Rain = 0
KQU1 171830Z 16012KT 26/04 A2995 RMK A01 T02550040  RH  025%=      5-min Rain = 0
KQU1 171831Z 16012KT 26/03 A2995 RMK A01 T02570034  RH  024%=      5-min Rain = 0
KQU1 171832Z 18013KT 26/03 A2995 RMK A01 T02560033  RH  024%=      5-min Rain = 0
KQU1 171833Z 19012KT 26/03 A2995 RMK A01 T02560033  RH  024%=      5-min Rain = 0
KQU1 171834Z 18012KT 26/03 A2995 RMK A01 T02550032  RH  024%=      5-min Rain = 0
KQU1 171835Z 18010KT 26/03 A2995 RMK A01 T02550034  RH  024%=      5-min Rain = 0
KQU1 171836Z 18013KT 26/03 A2994 RMK A01 T02550032  RH  024%=      5-min Rain = 0
KQU1 171837Z 20015KT 26/03 A2994 RMK A01 T02550026  RH  023%=      5-min Rain = 0
KQU1 171838Z 20011KT 26/02 A2994 RMK A01 T02550021  RH  022%=      5-min Rain = 0
KQU1 171839Z 19011KT 26/03 A2994 RMK A01 T02560028  RH  023%=      5-min Rain = 0
KQU1 171840Z 17013KT 26/03 A2994 RMK A01 T02550032  RH  024%=      5-min Rain = 0
KQU1 171841Z 18013KT 26/03 A2994 RMK A01 T02550029  RH  023%=      5-min Rain = 0
KQU1 171842Z 18012KT 26/03 A2994 RMK A01 T02550032  RH  024%=      5-min Rain = 0
KQU1 171843Z 17011KT 26/03 A2994 RMK A01 T02560032  RH  023%=      5-min Rain = 0
KQU1 171844Z 17012KT 26/04 A2994 RMK A01 T02560035  RH  024%=      5-min Rain = 0
KQU1 171845Z 19010KT 26/04 A2994 RMK A01 T02590038  RH  024%=      5-min Rain = 0
KQU1 171846Z 20011KT 26/04 A2994 RMK A01 T02610035  RH  023%=      5-min Rain = 0
KQU1 171847Z 19013KT 26/03 A2994 RMK A01 T02610030  RH  022%=      5-min Rain = 0
KQU1 171848Z 18013KT 26/02 A2994 RMK A01 T02600024  RH  022%=      5-min Rain = 0
KQU1 171849Z 19012KT 26/02 A2994 RMK A01 T02580024  RH  022%=      5-min Rain = 0
KQU1 171850Z 20010KT 26/03 A2994 RMK A01 T02580029  RH  023%=      5-min Rain = 0
KQU1 171851Z 20010KT 26/03 A2994 RMK A01 T02590030  RH  023%=      5-min Rain = 0
KQU1 171852Z 18011G16KT 26/03 A2994 RMK A01 T02610032  RH  023%=      5-min Rain = 0
KQU1 171853Z 18014KT 26/03 A2994 RMK A01 T02610026  RH  022%=      5-min Rain = 0
KQU1 171854Z 19013KT 26/02 A2994 RMK A01 T02600023  RH  021%=      5-min Rain = 0
KQU1 171855Z 20010KT 26/02 A2994 RMK A01 T02580022  RH  022%=      5-min Rain = 0
KQU1 171856Z 20010KT 26/02 A2994 RMK A01 T02570020  RH  021%=      5-min Rain = 0
KQU1 171857Z 18013KT 26/03 A2994 RMK A01 T02580027  RH  022%=      5-min Rain = 0
KQU1 171858Z 19012KT 26/03 A2994 RMK A01 T02600030  RH  023%=      5-min Rain = 0
KQU1 171859Z 18012KT 26/02 A2994 RMK A01 T02600022  RH  021%=      5-min Rain = 0
KQU1 171900Z 18012KT 26/02 A2994 RMK A01 T02600023  RH  021%=      5-min Rain = 0
KQU1 171901Z 18015KT 26/02 A2994 RMK A01 T02600022  RH  021%=      5-min Rain = 0
KQU1 171902Z 20014KT 26/02 A2993 RMK A01 T02600017  RH  021%=      5-min Rain = 0
KQU1 171903Z 19015KT 26/02 A2993 RMK A01 T02610017  RH  020%=      5-min Rain = 0
KQU1 171904Z 19014KT 26/02 A2993 RMK A01 T02610016  RH  020%=      5-min Rain = 0
KQU1 171905Z 19012KT 26/02 A2993 RMK A01 T02620020  RH  021%=      5-min Rain = 0
KQU1 171906Z 18015KT 26/02 A2993 RMK A01 T02630020  RH  021%=      5-min Rain = 0
KQU1 171907Z 19013KT 26/02 A2993 RMK A01 T02620017  RH  020%=      5-min Rain = 0
KQU1 171908Z 19014KT 26/02 A2993 RMK A01 T02620017  RH  020%=      5-min Rain = 0
KQU1 171909Z 18012KT 26/01 A2993 RMK A01 T02620014  RH  020%=      5-min Rain = 0
KQU1 171910Z 18015KT 26/02 A2993 RMK A01 T02620018  RH  021%=      5-min Rain = 0
KQU1 171911Z 17013KT 26/02 A2993 RMK A01 T02610024  RH  022%=      5-min Rain = 0
KQU1 171912Z 18013KT 26/03 A2993 RMK A01 T02620025  RH  022%=      5-min Rain = 0
KQU1 171913Z 18011KT 26/02 A2993 RMK A01 T02630024  RH  021%=      5-min Rain = 0
KQU1 171914Z 18013KT 26/03 A2993 RMK A01 T02640029  RH  022%=      5-min Rain = 0
KQU1 171915Z 19009KT 27/03 A2993 RMK A01 T02650030  RH  022%=      5-min Rain = 0
KQU1 171916Z 19013G18KT 27/02 A2992 RMK A01 T02660024  RH  021%=      5-min Rain = 0
KQU1 171917Z 19013KT 26/02 A2992 RMK A01 T02630019  RH  020%=      5-min Rain = 0
KQU1 171918Z 17010KT 26/02 A2992 RMK A01 T02620024  RH  021%=      5-min Rain = 0
KQU1 171919Z 19012G17KT 26/03 A2992 RMK A01 T02630026  RH  022%=      5-min Rain = 0
KQU1 171920Z 19015KT 26/02 A2992 RMK A01 T02630021  RH  021%=      5-min Rain = 0
KQU1 171921Z 18012KT 26/02 A2992 RMK A01 T02620018  RH  020%=      5-min Rain = 0
KQU1 171922Z 19015KT 26/02 A2992 RMK A01 T02620022  RH  021%=      5-min Rain = 0
KQU1 171923Z 18011KT 26/02 A2992 RMK A01 T02630021  RH  021%=      5-min Rain = 0
KQU1 171924Z 20012KT 26/02 A2992 RMK A01 T02640024  RH  021%=      5-min Rain = 0
KQU1 171925Z 20012KT 26/02 A2992 RMK A01 T02640017  RH  020%=      5-min Rain = 0
KQU1 171926Z 18013KT 26/02 A2992 RMK A01 T02640020  RH  021%=      5-min Rain = 0
KQU1 171927Z 19014KT 26/02 A2992 RMK A01 T02640015  RH  020%=      5-min Rain = 0
KQU1 171928Z 18015G20KT 26/02 A2992 RMK A01 T02640019  RH  020%=      5-min Rain = 0
KQU1 171929Z 19016KT 27/02 A2991 RMK A01 T02650015  RH  020%=      5-min Rain = 0
KQU1 171930Z 19017KT 27/01 A2991 RMK A01 T02650013  RH  019%=      5-min Rain = 0
KQU1 171931Z 19015KT 26/02 A2991 RMK A01 T02640017  RH  020%=      5-min Rain = 0
KQU1 171932Z 19012KT 26/02 A2991 RMK A01 T02640019  RH  020%=      5-min Rain = 0
KQU1 171933Z 19010KT 26/02 A2991 RMK A01 T02640015  RH  020%=      5-min Rain = 0
KQU1 171934Z 20009KT 26/01 A2991 RMK A01 T02630014  RH  020%=      5-min Rain = 0
KQU1 171935Z 20015KT 26/02 A2991 RMK A01 T02630019  RH  021%=      5-min Rain = 0
KQU1 171936Z 19015KT 26/02 A2991 RMK A01 T02630016  RH  020%=      5-min Rain = 0
KQU1 171937Z 20012KT 26/02 A2991 RMK A01 T02630015  RH  020%=      5-min Rain = 0
KQU1 171938Z 20011KT 26/01 A2991 RMK A01 T02620012  RH  020%=      5-min Rain = 0
KQU1 171939Z 18012KT 26/02 A2991 RMK A01 T02630021  RH  021%=      5-min Rain = 0
KQU1 171940Z 18015KT 27/02 A2991 RMK A01 T02650018  RH  020%=      5-min Rain = 0
KQU1 171941Z 19015KT 27/01 A2991 RMK A01 T02650014  RH  020%=      5-min Rain = 0
KQU1 171942Z 20014KT 26/01 A2991 RMK A01 T02640014  RH  020%=      5-min Rain = 0
KQU1 171943Z 18009KT 26/02 A2991 RMK A01 T02630016  RH  020%=      5-min Rain = 0
KQU1 171944Z 19014KT 26/02 A2991 RMK A01 T02640017  RH  020%=      5-min Rain = 0
KQU1 171945Z 19015KT 26/01 A2991 RMK A01 T02640006  RH  019%=      5-min Rain = 0
KQU1 171946Z 18016KT 27/01 A2991 RMK A01 T02650012  RH  019%=      5-min Rain = 0
KQU1 171947Z 18013KT 27/01 A2991 RMK A01 T02650014  RH  020%=      5-min Rain = 0
KQU1 171948Z 18013KT 27/01 A2991 RMK A01 T02650014  RH  019%=      5-min Rain = 0
KQU1 171949Z 17013KT 27/02 A299 RMK A01 T02660015  RH  020%=      5-min Rain = 0
KQU1 171950Z 19014KT 27/02 A299 RMK A01 T02670019  RH  020%=      5-min Rain = 0
KQU1 171951Z 20018KT 27/02 A299 RMK A01 T02670015  RH  019%=      5-min Rain = 0
KQU1 171952Z 20017KT 27/01 A299 RMK A01 T02660012  RH  019%=      5-min Rain = 0
KQU1 171953Z 20014KT 27/01 A299 RMK A01 T02660012  RH  019%=      5-min Rain = 0
KQU1 171954Z 18016KT 27/01 A299 RMK A01 T02660006  RH  018%=      5-min Rain = 0
KQU1 171955Z 18014KT 27/01 A299 RMK A01 T02650007  RH  019%=      5-min Rain = 0
KQU1 171956Z 20014KT 27/01 A299 RMK A01 T02660014  RH  019%=      5-min Rain = 0
KQU1 171957Z 18013KT 27/01 A299 RMK A01 T02680010  RH  019%=      5-min Rain = 0
KQU1 171958Z 20016KT 27/01 A299 RMK A01 T02690006  RH  018%=      5-min Rain = 0
KQU1 171959Z 19015KT 27/01 A299 RMK A01 T02680008  RH  018%=      5-min Rain = 0
KQU1 172000Z 19017KT 27/01 A299 RMK A01 T02670012  RH  019%=      5-min Rain = 0
KQU1 172001Z 20015KT 27/01 A299 RMK A01 T02660013  RH  019%=      5-min Rain = 0
KQU1 172002Z 21013KT 27/01 A299 RMK A01 T02650011  RH  019%=      5-min Rain = 0
KQU1 172003Z 20012KT 27/02 A299 RMK A01 T02650017  RH  020%=      5-min Rain = 0
KQU1 172004Z 21012KT 27/02 A299 RMK A01 T02660018  RH  020%=      5-min Rain = 0
KQU1 172005Z 19013KT 27/02 A299 RMK A01 T02680016  RH  020%=      5-min Rain = 0
KQU1 172006Z 19011KT 27/01 A2989 RMK A01 T02680014  RH  019%=      5-min Rain = 0
KQU1 172007Z 18016KT 27/01 A2989 RMK A01 T02690012  RH  019%=      5-min Rain = 0
KQU1 172008Z 19016KT 27/01 A2989 RMK A01 T02690010  RH  019%=      5-min Rain = 0
KQU1 172009Z 19017KT 27/00 A2989 RMK A01 T02690000  RH  017%=      5-min Rain = 0
KQU1 172010Z 18015KT 27/01 A2989 RMK A01 T02670005  RH  018%=      5-min Rain = 0
KQU1 172011Z 18015KT 27/01 A2989 RMK A01 T02670009  RH  019%=      5-min Rain = 0
KQU1 172012Z 18013KT 27/01 A2989 RMK A01 T02660009  RH  019%=      5-min Rain = 0
KQU1 172013Z 18011KT 27/02 A2989 RMK A01 T02660016  RH  020%=      5-min Rain = 0
KQU1 172014Z 19013KT 27/01 A2989 RMK A01 T02660012  RH  019%=      5-min Rain = 0
KQU1 172015Z 21013KT 27/01 A2989 RMK A01 T02670011  RH  019%=      5-min Rain = 0
KQU1 172016Z 21015KT 27/01 A2989 RMK A01 T02670007  RH  018%=      5-min Rain = 0
KQU1 172017Z 20013KT 27/01 A2989 RMK A01 T02660006  RH  018%=      5-min Rain = 0
KQU1 172018Z 19012KT 27/01 A2989 RMK A01 T02660014  RH  019%=      5-min Rain = 0
KQU1 172019Z 19014KT 27/01 A2989 RMK A01 T02680012  RH  019%=      5-min Rain = 0
KQU1 172020Z 19015KT 27/01 A2989 RMK A01 T02680011  RH  019%=      5-min Rain = 0
KQU1 172021Z 20017KT 27/01 A2989 RMK A01 T02680011  RH  019%=      5-min Rain = 0
KQU1 172022Z 20016KT 27/01 A2989 RMK A01 T02670005  RH  018%=      5-min Rain = 0
KQU1 172023Z 20013KT 27/01 A2989 RMK A01 T02660009  RH  019%=      5-min Rain = 0
KQU1 172024Z 21012KT 27/01 A2988 RMK A01 T02660012  RH  019%=      5-min Rain = 0
KQU1 172025Z 19012KT 27/01 A2988 RMK A01 T02660014  RH  019%=      5-min Rain = 0
KQU1 172026Z 18013KT 27/02 A2988 RMK A01 T02670017  RH  020%=      5-min Rain = 0
KQU1 172027Z 19014KT 27/01 A2988 RMK A01 T02690012  RH  019%=      5-min Rain = 0
KQU1 172028Z 21013KT 27/01 A2988 RMK A01 T02690009  RH  018%=      5-min Rain = 0
KQU1 172029Z 22015KT 27/01 A2988 RMK A01 T02700009  RH  018%=      5-min Rain = 0
KQU1 172030Z 21013KT 27/01 A2988 RMK A01 T02710007  RH  018%=      5-min Rain = 0
KQU1 172031Z 21013KT 27/01 A2988 RMK A01 T02700007  RH  018%=      5-min Rain = 0
KQU1 172032Z 21013KT 27/01 A2988 RMK A01 T02690009  RH  018%=      5-min Rain = 0
KQU1 172033Z 20013KT 27/01 A2988 RMK A01 T02690013  RH  019%=      5-min Rain = 0
KQU1 172034Z 19015KT 27/01 A2988 RMK A01 T02690005  RH  018%=      5-min Rain = 0
KQU1 172035Z 20013KT 27/01 A2988 RMK A01 T02690006  RH  018%=      5-min Rain = 0
KQU1 172036Z 19016KT 27/01 A2988 RMK A01 T02680008  RH  018%=      5-min Rain = 0
KQU1 172037Z 19015KT 27/00 A2988 RMK A01 T02680004  RH  018%=      5-min Rain = 0
KQU1 172038Z 20015KT 27/01 A2988 RMK A01 T02670006  RH  018%=      5-min Rain = 0
KQU1 172039Z 18013KT 27/01 A2988 RMK A01 T02670009  RH  019%=      5-min Rain = 0
KQU1 172040Z 18012KT 27/01 A2988 RMK A01 T02670013  RH  019%=      5-min Rain = 0
KQU1 172041Z 18012G17KT 27/02 A2988 RMK A01 T02680019  RH  020%=      5-min Rain = 0
KQU1 172042Z 20014KT 27/01 A2988 RMK A01 T02680008  RH  018%=      5-min Rain = 0
KQU1 172043Z 21011KT 27/01 A2988 RMK A01 T02670011  RH  019%=      5-min Rain = 0
KQU1 172044Z 20015KT 27/01 A2988 RMK A01 T02680011  RH  019%=      5-min Rain = 0
KQU1 172045Z 19017KT 27/01 A2988 RMK A01 T02680008  RH  018%=      5-min Rain = 0
KQU1 172046Z 19015KT 27/01 A2988 RMK A01 T02670007  RH  018%=      5-min Rain = 0
KQU1 172047Z 20016KT 27/01 A2988 RMK A01 T02680009  RH  018%=      5-min Rain = 0
KQU1 172048Z 19015KT 27/01 A2988 RMK A01 T02680005  RH  018%=      5-min Rain = 0
KQU1 172049Z 20013KT 27/01 A2988 RMK A01 T02690013  RH  019%=      5-min Rain = 0
KQU1 172050Z 20015KT 27/01 A2988 RMK A01 T02700010  RH  018%=      5-min Rain = 0
KQU1 172051Z 19017KT 27/01 A2988 RMK A01 T02710007  RH  018%=      5-min Rain = 0
KQU1 172052Z 19017KT 27/00 A2988 RMK A01 T02690004  RH  018%=      5-min Rain = 0
KQU1 172053Z 19015KT 27/01 A2988 RMK A01 T02690007  RH  018%=      5-min Rain = 0
KQU1 172054Z 20015KT 27/00 A2988 RMK A01 T02680004  RH  018%=      5-min Rain = 0
KQU1 172055Z 20013KT 27/01 A2988 RMK A01 T02670005  RH  018%=      5-min Rain = 0
KQU1 172056Z 20011KT 27/00 A2988 RMK A01 T02670004  RH  018%=      5-min Rain = 0
KQU1 172057Z 18013KT 27/01 A2988 RMK A01 T02670011  RH  019%=      5-min Rain = 0
KQU1 172058Z 19014KT 27/02 A2988 RMK A01 T02670017  RH  020%=      5-min Rain = 0
KQU1 172059Z 20015KT 27/02 A2988 RMK A01 T02680017  RH  020%=      5-min Rain = 0
KQU1 172100Z 18014KT 27/02 A2988 RMK A01 T02690017  RH  020%=      5-min Rain = 0
KQU1 172101Z 18015G20KT 27/02 A2988 RMK A01 T02690019  RH  020%=      5-min Rain = 0
KQU1 172102Z 17014KT 27/02 A2988 RMK A01 T02690016  RH  019%=      5-min Rain = 0
KQU1 172103Z 17014KT 27/02 A2988 RMK A01 T02690018  RH  020%=      5-min Rain = 0
KQU1 172104Z 18016KT 27/02 A2988 RMK A01 T02680016  RH  019%=      5-min Rain = 0
KQU1 172105Z 18014KT 27/02 A2988 RMK A01 T02690019  RH  020%=      5-min Rain = 0
KQU1 172106Z 18013KT 27/02 A2988 RMK A01 T02690019  RH  020%=      5-min Rain = 0
KQU1 172107Z 19017KT 27/02 A2988 RMK A01 T02690017  RH  019%=      5-min Rain = 0
KQU1 172108Z 20014KT 27/01 A2988 RMK A01 T02680011  RH  019%=      5-min Rain = 0
KQU1 172109Z 19015G20KT 27/01 A2987 RMK A01 T02680011  RH  019%=      5-min Rain = 0
KQU1 172110Z 18018KT 27/01 A2987 RMK A01 T02690011  RH  019%=      5-min Rain = 0
KQU1 172111Z 19017KT 27/01 A2987 RMK A01 T02680008  RH  018%=      5-min Rain = 0
KQU1 172112Z 18017KT 27/01 A2987 RMK A01 T02680011  RH  019%=      5-min Rain = 0
KQU1 172113Z 17015KT 27/01 A2987 RMK A01 T02680013  RH  019%=      5-min Rain = 0
KQU1 172114Z 18016KT 27/02 A2987 RMK A01 T02680015  RH  019%=      5-min Rain = 0
KQU1 172115Z 19015KT 27/01 A2987 RMK A01 T02670010  RH  019%=      5-min Rain = 0
KQU1 172116Z 18013KT 27/01 A2987 RMK A01 T02670012  RH  019%=      5-min Rain = 0
KQU1 172117Z 17012KT 27/01 A2987 RMK A01 T02670012  RH  019%=      5-min Rain = 0
KQU1 172118Z 18014KT 27/02 A2987 RMK A01 T02670016  RH  020%=      5-min Rain = 0
KQU1 172119Z 18016KT 27/02 A2987 RMK A01 T02680015  RH  019%=      5-min Rain = 0
KQU1 172120Z 18016KT 27/01 A2987 RMK A01 T02680014  RH  019%=      5-min Rain = 0
KQU1 172121Z 19015KT 27/01 A2987 RMK A01 T02680013  RH  019%=      5-min Rain = 0
KQU1 172122Z 19013KT 27/01 A2987 RMK A01 T02670011  RH  019%=      5-min Rain = 0
KQU1 172123Z 19012KT 27/02 A2987 RMK A01 T02670017  RH  020%=      5-min Rain = 0
KQU1 172124Z 18014KT 27/02 A2987 RMK A01 T02680022  RH  020%=      5-min Rain = 0
KQU1 172125Z 18016KT 27/03 A2987 RMK A01 T02700025  RH  021%=      5-min Rain = 0
KQU1 172126Z 18017KT 27/02 A2987 RMK A01 T02690018  RH  020%=      5-min Rain = 0
KQU1 172127Z 18017KT 27/02 A2987 RMK A01 T02680016  RH  019%=      5-min Rain = 0
KQU1 172128Z 18015KT 27/02 A2987 RMK A01 T02670015  RH  019%=      5-min Rain = 0
KQU1 172129Z 18013KT 27/02 A2987 RMK A01 T02670016  RH  020%=      5-min Rain = 0
KQU1 172130Z 18013KT 27/02 A2987 RMK A01 T02670018  RH  020%=      5-min Rain = 0
KQU1 172131Z 17011KT 27/02 A2987 RMK A01 T02670019  RH  020%=      5-min Rain = 0
KQU1 172132Z 17013KT 27/02 A2986 RMK A01 T02670020  RH  020%=      5-min Rain = 0
KQU1 172133Z 18019KT 27/02 A2986 RMK A01 T02670016  RH  020%=      5-min Rain = 0
KQU1 172134Z 19018KT 27/02 A2986 RMK A01 T02670015  RH  019%=      5-min Rain = 0
KQU1 172135Z 19016KT 27/02 A2986 RMK A01 T02670016  RH  020%=      5-min Rain = 0
KQU1 172136Z 18015KT 27/02 A2986 RMK A01 T02670015  RH  019%=      5-min Rain = 0
KQU1 172137Z 20017G22KT 27/02 A2986 RMK A01 T02670016  RH  019%=      5-min Rain = 0
KQU1 172138Z 19020KT 27/01 A2986 RMK A01 T02670012  RH  019%=      5-min Rain = 0
KQU1 172139Z 17017KT 27/02 A2986 RMK A01 T02660015  RH  019%=      5-min Rain = 0
KQU1 172140Z 17014KT 27/02 A2986 RMK A01 T02660016  RH  020%=      5-min Rain = 0
KQU1 172141Z 18013KT 27/02 A2986 RMK A01 T02650018  RH  020%=      5-min Rain = 0
KQU1 172142Z 19012KT 27/02 A2986 RMK A01 T02660015  RH  020%=      5-min Rain = 0
KQU1 172143Z 18011KT 27/02 A2986 RMK A01 T02660019  RH  020%=      5-min Rain = 0
KQU1 172144Z 18013KT 27/02 A2986 RMK A01 T02680024  RH  021%=      5-min Rain = 0
KQU1 172145Z 18016KT 27/02 A2986 RMK A01 T02680015  RH  019%=      5-min Rain = 0
KQU1 172151Z 18015KT 27/02 A2986 RMK A01 T02650015  RH  020%=      5-min Rain = 0
KQU1 172152Z 18014KT 27/02 A2986 RMK A01 T02660021  RH  020%=      5-min Rain = 0
KQU1 172153Z 17013G19KT 27/02 A2986 RMK A01 T02680023  RH  021%=      5-min Rain = 0
KQU1 172154Z 18016KT 27/02 A2986 RMK A01 T02680015  RH  019%=      5-min Rain = 0
KQU1 172155Z 17016G22KT 27/02 A2986 RMK A01 T02670019  RH  020%=      5-min Rain = 0
KQU1 172156Z 18019KT 27/02 A2986 RMK A01 T02670015  RH  020%=      5-min Rain = 0
KQU1 172157Z 18015KT 27/02 A2986 RMK A01 T02660015  RH  019%=      5-min Rain = 0
KQU1 172158Z 18015KT 27/02 A2986 RMK A01 T02660015  RH  020%=      5-min Rain = 0
KQU1 172159Z 18017KT 27/01 A2986 RMK A01 T02650012  RH  019%=      5-min Rain = 0
KQU1 172200Z 17014KT 27/02 A2986 RMK A01 T02650015  RH  020%=      5-min Rain = 0
KQU1 172201Z 17014KT 27/02 A2986 RMK A01 T02650019  RH  020%=      5-min Rain = 0
KQU1 172202Z 18015KT 27/02 A2986 RMK A01 T02650017  RH  020%=      5-min Rain = 0
KQU1 172203Z 18017KT 27/01 A2986 RMK A01 T02650014  RH  020%=      5-min Rain = 0
KQU1 172204Z 18017KT 26/02 A2986 RMK A01 T02640015  RH  020%=      5-min Rain = 0
KQU1 172205Z 17015KT 26/02 A2986 RMK A01 T02640019  RH  020%=      5-min Rain = 0
KQU1 172206Z 18014KT 26/02 A2986 RMK A01 T02640019  RH  020%=      5-min Rain = 0
KQU1 172207Z 18016KT 27/02 A2986 RMK A01 T02650022  RH  021%=      5-min Rain = 0
KQU1 172208Z 17015KT 27/02 A2986 RMK A01 T02650024  RH  021%=      5-min Rain = 0
KQU1 172209Z 17017KT 27/02 A2986 RMK A01 T02650024  RH  021%=      5-min Rain = 0
KQU1 172210Z 17018KT 26/02 A2986 RMK A01 T02640023  RH  021%=      5-min Rain = 0
KQU1 172211Z 18015KT 26/03 A2986 RMK A01 T02640025  RH  021%=      5-min Rain = 0
KQU1 172212Z 18015KT 26/03 A2986 RMK A01 T02630025  RH  021%=      5-min Rain = 0
KQU1 172213Z 18014KT 26/03 A2986 RMK A01 T02630025  RH  021%=      5-min Rain = 0
KQU1 172214Z 17014KT 26/03 A2986 RMK A01 T02630027  RH  022%=      5-min Rain = 0
KQU1 172215Z 17013KT 26/03 A2985 RMK A01 T02630028  RH  022%=      5-min Rain = 0
KQU1 172216Z 18017G22KT 26/02 A2985 RMK A01 T02630021  RH  021%=      5-min Rain = 0
KQU1 172217Z 17021KT 26/02 A2985 RMK A01 T02620018  RH  020%=      5-min Rain = 0
KQU1 172218Z 18017KT 26/02 A2985 RMK A01 T02620019  RH  021%=      5-min Rain = 0
KQU1 172219Z 18016KT 26/02 A2985 RMK A01 T02610019  RH  021%=      5-min Rain = 0
KQU1 172220Z 18015KT 26/02 A2985 RMK A01 T02610020  RH  021%=      5-min Rain = 0
KQU1 172221Z 18013KT 26/02 A2985 RMK A01 T02610023  RH  021%=      5-min Rain = 0
KQU1 172222Z 17015KT 26/02 A2985 RMK A01 T02600022  RH  021%=      5-min Rain = 0
KQU1 172223Z 17015KT 26/02 A2985 RMK A01 T02590023  RH  022%=      5-min Rain = 0
KQU1 172224Z 17015KT 26/02 A2985 RMK A01 T02590024  RH  022%=      5-min Rain = 0
KQU1 172225Z 17013KT 26/02 A2985 RMK A01 T02580024  RH  022%=      5-min Rain = 0
KQU1 172226Z 17014KT 26/03 A2985 RMK A01 T02580026  RH  022%=      5-min Rain = 0
KQU1 172227Z 18016KT 26/03 A2985 RMK A01 T02580026  RH  022%=      5-min Rain = 0
KQU1 172228Z 17015KT 26/02 A2985 RMK A01 T02570023  RH  022%=      5-min Rain = 0
KQU1 172229Z 17016G22KT 26/02 A2985 RMK A01 T02560022  RH  022%=      5-min Rain = 0
KQU1 172230Z 17015G20KT 26/02 A2985 RMK A01 T02560022  RH  022%=      5-min Rain = 0
KQU1 172231Z 18015KT 26/02 A2985 RMK A01 T02550023  RH  022%=      5-min Rain = 0
KQU1 172232Z 18015KT 25/02 A2985 RMK A01 T02540023  RH  022%=      5-min Rain = 0
KQU1 172233Z 19016KT 25/02 A2985 RMK A01 T02530020  RH  022%=      5-min Rain = 0
KQU1 172234Z 18016KT 25/02 A2985 RMK A01 T02530018  RH  022%=      5-min Rain = 0
KQU1 172235Z 18013KT 25/02 A2985 RMK A01 T02520020  RH  022%=      5-min Rain = 0
KQU1 172236Z 18013KT 25/02 A2985 RMK A01 T02510023  RH  023%=      5-min Rain = 0
KQU1 172237Z 17013KT 25/02 A2985 RMK A01 T02500023  RH  023%=      5-min Rain = 0
KQU1 172238Z 17011KT 25/03 A2985 RMK A01 T02490025  RH  023%=      5-min Rain = 0
KQU1 172239Z 17014KT 25/03 A2985 RMK A01 T02480025  RH  023%=      5-min Rain = 0
KQU1 172240Z 17014KT 25/03 A2985 RMK A01 T02470025  RH  024%=      5-min Rain = 0
KQU1 172241Z 17013KT 25/03 A2985 RMK A01 T02460025  RH  024%=      5-min Rain = 0
KQU1 172242Z 18014KT 25/02 A2985 RMK A01 T02460023  RH  023%=      5-min Rain = 0
KQU1 172243Z 18016KT 25/02 A2985 RMK A01 T02460019  RH  023%=      5-min Rain = 0
KQU1 172244Z 18014KT 25/02 A2985 RMK A01 T02460020  RH  023%=      5-min Rain = 0
KQU1 172245Z 18016KT 25/02 A2985 RMK A01 T02470020  RH  023%=      5-min Rain = 0
KQU1 172246Z 18016KT 25/02 A2985 RMK A01 T02480021  RH  023%=      5-min Rain = 0
KQU1 172247Z 18012KT 25/02 A2985 RMK A01 T02490023  RH  023%=      5-min Rain = 0
KQU1 172248Z 18013KT 25/03 A2985 RMK A01 T02490027  RH  024%=      5-min Rain = 0
KQU1 172249Z 18011KT 25/03 A2985 RMK A01 T02490027  RH  024%=      5-min Rain = 0
KQU1 172250Z 18011KT 25/03 A2985 RMK A01 T02480030  RH  024%=      5-min Rain = 0
KQU1 172251Z 18011KT 25/03 A2985 RMK A01 T02480030  RH  024%=      5-min Rain = 0
KQU1 172252Z 18011KT 25/03 A2985 RMK A01 T02480032  RH  025%=      5-min Rain = 0
KQU1 172253Z 17014KT 25/03 A2985 RMK A01 T02480031  RH  024%=      5-min Rain = 0
KQU1 172254Z 17012KT 25/03 A2985 RMK A01 T02480032  RH  025%=      5-min Rain = 0
KQU1 172255Z 17012KT 25/03 A2985 RMK A01 T02480033  RH  025%=      5-min Rain = 0
KQU1 172256Z 18013KT 25/03 A2985 RMK A01 T02480032  RH  025%=      5-min Rain = 0
KQU1 172257Z 18011KT 25/03 A2985 RMK A01 T02480034  RH  025%=      5-min Rain = 0
KQU1 172258Z 18012KT 25/03 A2985 RMK A01 T02490034  RH  025%=      5-min Rain = 0
KQU1 172259Z 18010KT 25/04 A2985 RMK A01 T02490036  RH  025%=      5-min Rain = 0
KQU1 172300Z 18010KT 25/04 A2985 RMK A01 T02490038  RH  026%=      5-min Rain = 0
KQU1 172301Z 18012G17KT 25/04 A2985 RMK A01 T02490036  RH  025%=      5-min Rain = 0
KQU1 172302Z 18014KT 25/03 A2985 RMK A01 T02500031  RH  024%=      5-min Rain = 0
KQU1 172303Z 18014KT 25/03 A2985 RMK A01 T02500030  RH  024%=      5-min Rain = 0
KQU1 172304Z 18011KT 25/03 A2985 RMK A01 T02500032  RH  024%=      5-min Rain = 0
KQU1 172305Z 18010KT 25/03 A2985 RMK A01 T02510034  RH  024%=      5-min Rain = 0
KQU1 172306Z 18011KT 25/03 A2985 RMK A01 T02510032  RH  024%=      5-min Rain = 0
KQU1 172307Z 18012KT 25/03 A2985 RMK A01 T02500031  RH  024%=      5-min Rain = 0
KQU1 172308Z 18013KT 25/03 A2985 RMK A01 T02500029  RH  024%=      5-min Rain = 0
KQU1 172309Z 18013KT 25/03 A2985 RMK A01 T02500032  RH  024%=      5-min Rain = 0
KQU1 172310Z 18012KT 25/03 A2985 RMK A01 T02500031  RH  024%=      5-min Rain = 0
KQU1 172311Z 18012KT 25/03 A2985 RMK A01 T02500030  RH  024%=      5-min Rain = 0
KQU1 172312Z 17014KT 25/03 A2985 RMK A01 T02490030  RH  024%=      5-min Rain = 0
KQU1 172313Z 18014KT 25/03 A2985 RMK A01 T02490029  RH  024%=      5-min Rain = 0
KQU1 172314Z 18014KT 25/03 A2985 RMK A01 T02490031  RH  024%=      5-min Rain = 0
KQU1 172315Z 18012KT 25/03 A2985 RMK A01 T02490032  RH  024%=      5-min Rain = 0
KQU1 172316Z 18011KT 25/03 A2985 RMK A01 T02480033  RH  025%=      5-min Rain = 0
KQU1 172317Z 18011KT 25/03 A2985 RMK A01 T02470034  RH  025%=      5-min Rain = 0
KQU1 172318Z 18012KT 25/03 A2985 RMK A01 T02470034  RH  025%=      5-min Rain = 0
KQU1 172319Z 18011KT 25/04 A2985 RMK A01 T02460035  RH  025%=      5-min Rain = 0
KQU1 172320Z 18011KT 25/04 A2985 RMK A01 T02450035  RH  025%=      5-min Rain = 0
KQU1 172321Z 17010KT 24/04 A2985 RMK A01 T02440037  RH  026%=      5-min Rain = 0
KQU1 172322Z 18013KT 24/04 A2985 RMK A01 T02430035  RH  026%=      5-min Rain = 0
KQU1 172323Z 17011KT 24/04 A2985 RMK A01 T02420036  RH  026%=      5-min Rain = 0
KQU1 172324Z 18012KT 24/04 A2985 RMK A01 T02420036  RH  026%=      5-min Rain = 0
KQU1 172325Z 17010KT 24/04 A2985 RMK A01 T02410038  RH  027%=      5-min Rain = 0
KQU1 172326Z 17010KT 24/04 A2985 RMK A01 T02410038  RH  027%=      5-min Rain = 0
KQU1 172327Z 17010KT 24/04 A2985 RMK A01 T02390040  RH  027%=      5-min Rain = 0
KQU1 172328Z 17010KT 24/04 A2985 RMK A01 T02380039  RH  027%=      5-min Rain = 0
KQU1 172329Z 17009KT 24/04 A2985 RMK A01 T02370041  RH  028%=      5-min Rain = 0
KQU1 172330Z 17009KT 24/04 A2984 RMK A01 T02360042  RH  028%=      5-min Rain = 0
KQU1 172331Z 17009KT 24/04 A2984 RMK A01 T02350042  RH  028%=      5-min Rain = 0
KQU1 172332Z 17010KT 23/04 A2984 RMK A01 T02340042  RH  029%=      5-min Rain = 0
KQU1 172333Z 17010KT 23/04 A2984 RMK A01 T02330043  RH  029%=      5-min Rain = 0
KQU1 172334Z 17010KT 23/04 A2984 RMK A01 T02320043  RH  029%=      5-min Rain = 0
KQU1 172335Z 17010KT 23/04 A2984 RMK A01 T02320043  RH  029%=      5-min Rain = 0
KQU1 172336Z 17010KT 23/04 A2984 RMK A01 T02310043  RH  029%=      5-min Rain = 0
KQU1 172337Z 17010KT 23/04 A2984 RMK A01 T02300043  RH  029%=      5-min Rain = 0
KQU1 172338Z 17011KT 23/04 A2984 RMK A01 T02300042  RH  029%=      5-min Rain = 0
KQU1 172339Z 16010KT 23/04 A2984 RMK A01 T02300042  RH  029%=      5-min Rain = 0
KQU1 172340Z 16009KT 23/04 A2984 RMK A01 T02300042  RH  029%=      5-min Rain = 0
KQU1 172341Z 16010KT 23/04 A2984 RMK A01 T02290042  RH  030%=      5-min Rain = 0
KQU1 172342Z 16009KT 23/04 A2984 RMK A01 T02290042  RH  030%=      5-min Rain = 0
KQU1 172343Z 16009KT 23/04 A2984 RMK A01 T02280043  RH  030%=      5-min Rain = 0
KQU1 172344Z 16010KT 23/04 A2984 RMK A01 T02270043  RH  030%=      5-min Rain = 0
KQU1 172345Z 16010KT 23/04 A2984 RMK A01 T02270043  RH  030%=      5-min Rain = 0
KQU1 172346Z 16010KT 23/04 A2984 RMK A01 T02260042  RH  030%=      5-min Rain = 0
KQU1 172347Z 16010KT 23/04 A2984 RMK A01 T02260042  RH  030%=      5-min Rain = 0
KQU1 172348Z 16009KT 23/04 A2984 RMK A01 T02250042  RH  030%=      5-min Rain = 0
KQU1 172349Z 16010KT 23/04 A2984 RMK A01 T02250043  RH  030%=      5-min Rain = 0
KQU1 172350Z 16010KT 22/04 A2984 RMK A01 T02240042  RH  031%=      5-min Rain = 0
KQU1 172351Z 16010KT 22/04 A2984 RMK A01 T02230042  RH  031%=      5-min Rain = 0
KQU1 172352Z 16011KT 22/04 A2984 RMK A01 T02230041  RH  030%=      5-min Rain = 0
KQU1 172353Z 16010KT 22/04 A2984 RMK A01 T02230042  RH  031%=      5-min Rain = 0
KQU1 172354Z 16011KT 22/04 A2984 RMK A01 T02230042  RH  031%=      5-min Rain = 0
KQU1 172355Z 16010KT 22/04 A2984 RMK A01 T02230042  RH  031%=      5-min Rain = 0
KQU1 172356Z 16010KT 22/04 A2984 RMK A01 T02220042  RH  031%=      5-min Rain = 0
KQU1 172357Z 17010KT 22/04 A2984 RMK A01 T02210042  RH  031%=      5-min Rain = 0
KQU1 172358Z 16009KT 22/04 A2984 RMK A01 T02200042  RH  031%=      5-min Rain = 0
KQU1 172359Z 17009KT 22/04 A2984 RMK A01 T02190043  RH  032%=      5-min Rain = 0
KQU1 180000Z 16009KT 22/04 A2984 RMK A01 T02180043  RH  032%=      5-min Rain = 0
KQU1 180001Z 16009KT 22/04 A2984 RMK A01 T02170043  RH  032%=      5-min Rain = 0
KQU1 180002Z 16009KT 22/04 A2984 RMK A01 T02160043  RH  032%=      5-min Rain = 0
KQU1 180003Z 16009KT 22/04 A2984 RMK A01 T02150044  RH  033%=      5-min Rain = 0
KQU1 180004Z 16008KT 21/04 A2984 RMK A01 T02140044  RH  033%=      5-min Rain = 0
KQU1 180005Z 17008KT 21/04 A2984 RMK A01 T02120044  RH  033%=      5-min Rain = 0
KQU1 180006Z 16008KT 21/04 A2984 RMK A01 T02110044  RH  034%=      5-min Rain = 0
KQU1 180007Z 16008KT 21/04 A2984 RMK A01 T02100044  RH  034%=      5-min Rain = 0
KQU1 180008Z 16008KT 21/05 A2984 RMK A01 T02080045  RH  034%=      5-min Rain = 0
KQU1 180009Z 16008KT 21/05 A2984 RMK A01 T02070046  RH  035%=      5-min Rain = 0
KQU1 180010Z 16008KT 21/05 A2984 RMK A01 T02060046  RH  035%=      5-min Rain = 0
KQU1 180011Z 16008KT 20/05 A2984 RMK A01 T02040047  RH  036%=      5-min Rain = 0
KQU1 180012Z 16008KT 20/05 A2984 RMK A01 T02030047  RH  036%=      5-min Rain = 0
KQU1 180013Z 16008KT 20/05 A2984 RMK A01 T02020048  RH  036%=      5-min Rain = 0
KQU1 180014Z 16008KT 20/05 A2984 RMK A01 T02000048  RH  037%=      5-min Rain = 0
KQU1 180015Z 16008KT 20/05 A2983 RMK A01 T01990049  RH  037%=      5-min Rain = 0
KQU1 180016Z 16008KT 20/05 A2983 RMK A01 T01980049  RH  038%=      5-min Rain = 0
KQU1 180017Z 16007KT 20/05 A2983 RMK A01 T01970050  RH  038%=      5-min Rain = 0
KQU1 180018Z 16008KT 20/05 A2983 RMK A01 T01960050  RH  038%=      5-min Rain = 0
KQU1 180019Z 16008KT 20/05 A2983 RMK A01 T01950051  RH  039%=      5-min Rain = 0
KQU1 180020Z 16008KT 19/05 A2983 RMK A01 T01930051  RH  039%=      5-min Rain = 0
KQU1 180021Z 16008KT 19/05 A2983 RMK A01 T01930051  RH  039%=      5-min Rain = 0
KQU1 180022Z 16008KT 19/05 A2983 RMK A01 T01920052  RH  040%=      5-min Rain = 0
KQU1 180023Z 16008KT 19/05 A2983 RMK A01 T01910052  RH  040%=      5-min Rain = 0
KQU1 180024Z 16008KT 19/05 A2983 RMK A01 T01910053  RH  040%=      5-min Rain = 0
KQU1 180025Z 16008KT 19/05 A2983 RMK A01 T01910053  RH  040%=      5-min Rain = 0
KQU1 180026Z 16008KT 19/05 A2983 RMK A01 T01910053  RH  040%=      5-min Rain = 0
KQU1 180027Z 17009KT 19/05 A2983 RMK A01 T01910054  RH  040%=      5-min Rain = 0
KQU1 180028Z 16008KT 19/05 A2983 RMK A01 T01910054  RH  040%=      5-min Rain = 0
KQU1 180029Z 17008KT 19/05 A2983 RMK A01 T01910054  RH  040%=      5-min Rain = 0
KQU1 180030Z 17008KT 19/05 A2983 RMK A01 T01910054  RH  040%=      5-min Rain = 0
KQU1 180031Z 17007KT 19/05 A2983 RMK A01 T01910054  RH  041%=      5-min Rain = 0
KQU1 180032Z 17007KT 19/05 A2983 RMK A01 T01910054  RH  041%=      5-min Rain = 0
KQU1 180033Z 17006KT 19/05 A2983 RMK A01 T01900054  RH  041%=      5-min Rain = 0
KQU1 180034Z 18005KT 19/05 A2983 RMK A01 T01890054  RH  041%=      5-min Rain = 0
KQU1 180035Z 18005KT 18/05 A2984 RMK A01 T01840052  RH  042%=      5-min Rain = 0
KQU1 180036Z 19005KT 18/05 A2984 RMK A01 T01800052  RH  043%=      5-min Rain = 0
KQU1 180037Z 18005KT 18/05 A2984 RMK A01 T01760052  RH  044%=      5-min Rain = 0
KQU1 180038Z 19006KT 17/05 A2984 RMK A01 T01730053  RH  045%=      5-min Rain = 0
KQU1 180039Z 19006KT 17/05 A2984 RMK A01 T01710053  RH  046%=      5-min Rain = 0
KQU1 180040Z 19006KT 17/05 A2984 RMK A01 T01690054  RH  047%=      5-min Rain = 0
KQU1 180041Z 19006KT 17/06 A2984 RMK A01 T01680055  RH  047%=      5-min Rain = 0
KQU1 180042Z 19006KT 17/06 A2984 RMK A01 T01670055  RH  048%=      5-min Rain = 0
KQU1 180043Z 19006KT 17/06 A2984 RMK A01 T01670056  RH  048%=      5-min Rain = 0
KQU1 180044Z 19006KT 17/06 A2984 RMK A01 T01670056  RH  048%=      5-min Rain = 0
KQU1 180045Z 19006KT 17/06 A2984 RMK A01 T01670056  RH  048%=      5-min Rain = 0
KQU1 180046Z 19006KT 17/06 A2984 RMK A01 T01670056  RH  048%=      5-min Rain = 0
KQU1 180047Z 19006KT 17/06 A2984 RMK A01 T01670056  RH  048%=      5-min Rain = 0
KQU1 180048Z 19006KT 17/06 A2984 RMK A01 T01670056  RH  048%=      5-min Rain = 0
KQU1 180049Z 19006KT 17/06 A2984 RMK A01 T01670056  RH  048%=      5-min Rain = 0
KQU1 180050Z 19006KT 17/06 A2984 RMK A01 T01670056  RH  048%=      5-min Rain = 0
KQU1 180051Z 19006KT 17/06 A2984 RMK A01 T01660056  RH  048%=      5-min Rain = 0
KQU1 180052Z 19007KT 17/06 A2984 RMK A01 T01660056  RH  048%=      5-min Rain = 0
KQU1 180053Z 19006KT 17/06 A2984 RMK A01 T01650056  RH  048%=      5-min Rain = 0
KQU1 180054Z 19007KT 17/06 A2984 RMK A01 T01650057  RH  049%=      5-min Rain = 0
KQU1 180055Z 19006KT 17/06 A2984 RMK A01 T01650057  RH  049%=      5-min Rain = 0
KQU1 180056Z 19007KT 17/06 A2984 RMK A01 T01650057  RH  049%=      5-min Rain = 0
KQU1 180057Z 19007KT 16/06 A2984 RMK A01 T01640057  RH  049%=      5-min Rain = 0
KQU1 180058Z 20007KT 16/06 A2984 RMK A01 T01640057  RH  049%=      5-min Rain = 0
KQU1 180059Z 20007KT 16/06 A2984 RMK A01 T01630057  RH  049%=      5-min Rain = 0
KQU1 180100Z 20007KT 16/06 A2984 RMK A01 T01630057  RH  049%=      5-min Rain = 0
KQU1 180101Z 20007KT 16/06 A2984 RMK A01 T01630057  RH  050%=      5-min Rain = 0
KQU1 180102Z 20007KT 16/06 A2984 RMK A01 T01630057  RH  050%=      5-min Rain = 0
KQU1 180103Z 20007KT 16/06 A2984 RMK A01 T01630057  RH  050%=      5-min Rain = 0
KQU1 180104Z 20007KT 16/06 A2984 RMK A01 T01630058  RH  050%=      5-min Rain = 0
KQU1 180105Z 19007KT 16/06 A2984 RMK A01 T01630058  RH  050%=      5-min Rain = 0
KQU1 180106Z 19007KT 16/06 A2984 RMK A01 T01640058  RH  049%=      5-min Rain = 0
KQU1 180107Z 19007KT 17/06 A2984 RMK A01 T01650058  RH  049%=      5-min Rain = 0
KQU1 180108Z 20007KT 17/06 A2984 RMK A01 T01660057  RH  049%=      5-min Rain = 0
KQU1 180109Z 20007KT 17/06 A2984 RMK A01 T01660057  RH  049%=      5-min Rain = 0
KQU1 180110Z 20007KT 17/06 A2984 RMK A01 T01660057  RH  048%=      5-min Rain = 0
KQU1 180111Z 20007KT 17/06 A2984 RMK A01 T01660057  RH  048%=      5-min Rain = 0
KQU1 180112Z 20007KT 17/06 A2984 RMK A01 T01660057  RH  049%=      5-min Rain = 0
KQU1 180113Z 20007KT 17/06 A2984 RMK A01 T01660057  RH  049%=      5-min Rain = 0
KQU1 180114Z 20007KT 17/06 A2984 RMK A01 T01660057  RH  049%=      5-min Rain = 0
KQU1 180115Z 20007KT 17/06 A2984 RMK A01 T01660057  RH  049%=      5-min Rain = 0
KQU1 180116Z 20007KT 17/06 A2984 RMK A01 T01650057  RH  049%=      5-min Rain = 0
KQU1 180117Z 20007KT 16/06 A2984 RMK A01 T01640057  RH  049%=      5-min Rain = 0
KQU1 180118Z 20007KT 16/06 A2984 RMK A01 T01630056  RH  049%=      5-min Rain = 0
KQU1 180119Z 20007KT 16/06 A2984 RMK A01 T01620056  RH  049%=      5-min Rain = 0
KQU1 180120Z 20007KT 16/06 A2984 RMK A01 T01620056  RH  050%=      5-min Rain = 0
KQU1 180121Z 20007KT 16/06 A2984 RMK A01 T01610057  RH  050%=      5-min Rain = 0
KQU1 180122Z 20007KT 16/06 A2984 RMK A01 T01600057  RH  050%=      5-min Rain = 0
KQU1 180123Z 20007KT 16/06 A2984 RMK A01 T01600056  RH  050%=      5-min Rain = 0
KQU1 180124Z 20007KT 16/06 A2984 RMK A01 T01590056  RH  051%=      5-min Rain = 0
KQU1 180125Z 20007KT 16/06 A2984 RMK A01 T01590057  RH  051%=      5-min Rain = 0
KQU1 180126Z 20007KT 16/06 A2984 RMK A01 T01590057  RH  051%=      5-min Rain = 0
KQU1 180127Z 19007KT 16/06 A2984 RMK A01 T01590056  RH  051%=      5-min Rain = 0
KQU1 180128Z 19006KT 16/06 A2984 RMK A01 T01580056  RH  051%=      5-min Rain = 0
KQU1 180129Z 19007KT 16/06 A2984 RMK A01 T01590056  RH  051%=      5-min Rain = 0
KQU1 180130Z 20007KT 16/06 A2984 RMK A01 T01590056  RH  050%=      5-min Rain = 0
KQU1 180131Z 20007KT 16/06 A2984 RMK A01 T01580056  RH  050%=      5-min Rain = 0
KQU1 180132Z 20007KT 16/06 A2984 RMK A01 T01580056  RH  050%=      5-min Rain = 0
KQU1 180133Z 20007KT 16/06 A2984 RMK A01 T01590056  RH  050%=      5-min Rain = 0
KQU1 180134Z 20007KT 16/06 A2984 RMK A01 T01590056  RH  050%=      5-min Rain = 0
KQU1 180135Z 21007KT 16/06 A2984 RMK A01 T01590055  RH  050%=      5-min Rain = 0
KQU1 180136Z 21007KT 16/06 A2984 RMK A01 T01590055  RH  050%=      5-min Rain = 0
KQU1 180137Z 21007KT 16/06 A2984 RMK A01 T01580055  RH  050%=      5-min Rain = 0
KQU1 180138Z 21008KT 16/06 A2984 RMK A01 T01580055  RH  050%=      5-min Rain = 0
KQU1 180139Z 20007KT 16/06 A2984 RMK A01 T01580055  RH  050%=      5-min Rain = 0
KQU1 180140Z 20007KT 16/06 A2984 RMK A01 T01590055  RH  050%=      5-min Rain = 0
KQU1 180141Z 20007KT 16/06 A2984 RMK A01 T01590055  RH  050%=      5-min Rain = 0
KQU1 180142Z 20007KT 16/05 A2984 RMK A01 T01590054  RH  050%=      5-min Rain = 0
KQU1 180143Z 20007KT 16/05 A2984 RMK A01 T01590054  RH  050%=      5-min Rain = 0
KQU1 180144Z 21007KT 16/06 A2984 RMK A01 T01590055  RH  050%=      5-min Rain = 0
KQU1 180145Z 21007KT 16/05 A2984 RMK A01 T01590054  RH  050%=      5-min Rain = 0
KQU1 180146Z 21008KT 16/05 A2984 RMK A01 T01580054  RH  050%=      5-min Rain = 0
KQU1 180147Z 21007KT 16/05 A2984 RMK A01 T01580053  RH  050%=      5-min Rain = 0
KQU1 180148Z 21008KT 16/05 A2984 RMK A01 T01580053  RH  050%=      5-min Rain = 0
KQU1 180149Z 21008KT 16/05 A2984 RMK A01 T01580053  RH  050%=      5-min Rain = 0
KQU1 180150Z 21008KT 16/05 A2984 RMK A01 T01570054  RH  050%=      5-min Rain = 0
KQU1 180151Z 21008KT 16/05 A2984 RMK A01 T01570054  RH  050%=      5-min Rain = 0
KQU1 180152Z 21008KT 16/05 A2984 RMK A01 T01570054  RH  050%=      5-min Rain = 0
KQU1 180153Z 21008KT 16/05 A2984 RMK A01 T01570054  RH  050%=      5-min Rain = 0
KQU1 180154Z 20007KT 16/05 A2984 RMK A01 T01570053  RH  050%=      5-min Rain = 0
KQU1 180155Z 21008KT 16/05 A2984 RMK A01 T01580054  RH  050%=      5-min Rain = 0
KQU1 180156Z 21008KT 16/05 A2984 RMK A01 T01570053  RH  050%=      5-min Rain = 0
KQU1 180157Z 20007KT 16/05 A2984 RMK A01 T01570054  RH  050%=      5-min Rain = 0
KQU1 180158Z 20007KT 16/05 A2984 RMK A01 T01560054  RH  051%=      5-min Rain = 0
KQU1 180159Z 20007KT 16/05 A2984 RMK A01 T01550054  RH  051%=      5-min Rain = 0
KQU1 180200Z 20007KT 16/05 A2984 RMK A01 T01550054  RH  051%=      5-min Rain = 0
KQU1 180201Z 20007KT 15/05 A2984 RMK A01 T01540054  RH  051%=      5-min Rain = 0
KQU1 180202Z 20007KT 15/05 A2984 RMK A01 T01540054  RH  051%=      5-min Rain = 0
KQU1 180203Z 20007KT 15/05 A2984 RMK A01 T01540054  RH  052%=      5-min Rain = 0
KQU1 180204Z 20008KT 15/05 A2984 RMK A01 T01530054  RH  052%=      5-min Rain = 0
KQU1 180205Z 20008KT 15/06 A2984 RMK A01 T01530055  RH  052%=      5-min Rain = 0
KQU1 180206Z 20007KT 15/06 A2985 RMK A01 T01530055  RH  052%=      5-min Rain = 0
KQU1 180207Z 20008KT 15/06 A2985 RMK A01 T01520055  RH  052%=      5-min Rain = 0
KQU1 180208Z 20007KT 15/06 A2985 RMK A01 T01520055  RH  052%=      5-min Rain = 0
KQU1 180209Z 20008KT 15/06 A2985 RMK A01 T01520055  RH  052%=      5-min Rain = 0
KQU1 180210Z 20008KT 15/06 A2985 RMK A01 T01520055  RH  053%=      5-min Rain = 0
KQU1 180211Z 20008KT 15/06 A2985 RMK A01 T01520056  RH  053%=      5-min Rain = 0
KQU1 180212Z 20008KT 15/06 A2985 RMK A01 T01510056  RH  053%=      5-min Rain = 0
KQU1 180213Z 20008KT 15/06 A2985 RMK A01 T01510056  RH  053%=      5-min Rain = 0
KQU1 180214Z 20007KT 15/06 A2985 RMK A01 T01510056  RH  053%=      5-min Rain = 0
KQU1 180215Z 20007KT 15/06 A2985 RMK A01 T01510056  RH  053%=      5-min Rain = 0
KQU1 180216Z 20007KT 15/06 A2985 RMK A01 T01510057  RH  053%=      5-min Rain = 0
KQU1 180217Z 20007KT 15/06 A2985 RMK A01 T01500057  RH  054%=      5-min Rain = 0
KQU1 180218Z 20006KT 15/06 A2985 RMK A01 T01510057  RH  054%=      5-min Rain = 0
KQU1 180219Z 20006KT 15/06 A2985 RMK A01 T01500057  RH  054%=      5-min Rain = 0
KQU1 180220Z 20005KT 15/06 A2985 RMK A01 T01500057  RH  054%=      5-min Rain = 0
KQU1 180221Z 19005KT 15/06 A2985 RMK A01 T01500057  RH  054%=      5-min Rain = 0
KQU1 180222Z 18006KT 15/06 A2985 RMK A01 T01490057  RH  054%=      5-min Rain = 0
KQU1 180223Z 19006KT 15/06 A2985 RMK A01 T01480057  RH  054%=      5-min Rain = 0
KQU1 180224Z 19006KT 15/06 A2985 RMK A01 T01480057  RH  055%=      5-min Rain = 0
KQU1 180225Z 20007KT 15/06 A2985 RMK A01 T01470058  RH  055%=      5-min Rain = 0
KQU1 180226Z 20007KT 15/06 A2985 RMK A01 T01460058  RH  055%=      5-min Rain = 0
KQU1 180227Z 20007KT 15/06 A2985 RMK A01 T01460058  RH  056%=      5-min Rain = 0
KQU1 180228Z 20006KT 15/06 A2985 RMK A01 T01460059  RH  056%=      5-min Rain = 0
KQU1 180229Z 20006KT 15/06 A2985 RMK A01 T01460059  RH  056%=      5-min Rain = 0
KQU1 180230Z 19006KT 15/06 A2985 RMK A01 T01450059  RH  056%=      5-min Rain = 0
KQU1 180231Z 19006KT 15/06 A2985 RMK A01 T01450059  RH  056%=      5-min Rain = 0
KQU1 180232Z 19006KT 15/06 A2985 RMK A01 T01450059  RH  057%=      5-min Rain = 0
KQU1 180233Z 19006KT 14/06 A2985 RMK A01 T01440060  RH  057%=      5-min Rain = 0
KQU1 180234Z 19006KT 14/06 A2985 RMK A01 T01440060  RH  057%=      5-min Rain = 0
KQU1 180235Z 19006KT 14/06 A2985 RMK A01 T01440060  RH  057%=      5-min Rain = 0
KQU1 180236Z 19006KT 14/06 A2985 RMK A01 T01440060  RH  057%=      5-min Rain = 0
KQU1 180237Z 20006KT 14/06 A2985 RMK A01 T01440061  RH  057%=      5-min Rain = 0
KQU1 180238Z 20006KT 14/06 A2985 RMK A01 T01440061  RH  057%=      5-min Rain = 0
KQU1 180239Z 20006KT 14/06 A2985 RMK A01 T01440061  RH  058%=      5-min Rain = 0
KQU1 180240Z 20006KT 14/06 A2985 RMK A01 T01430061  RH  058%=      5-min Rain = 0
KQU1 180241Z 20006KT 14/06 A2985 RMK A01 T01430061  RH  058%=      5-min Rain = 0
KQU1 180242Z 20006KT 14/06 A2985 RMK A01 T01430062  RH  058%=      5-min Rain = 0
KQU1 180243Z 20006KT 14/06 A2985 RMK A01 T01420062  RH  058%=      5-min Rain = 0
KQU1 180244Z 20006KT 14/06 A2985 RMK A01 T01420062  RH  059%=      5-min Rain = 0
KQU1 180245Z 20006KT 14/06 A2985 RMK A01 T01420062  RH  059%=      5-min Rain = 0
KQU1 180246Z 20007KT 14/06 A2985 RMK A01 T01420063  RH  059%=      5-min Rain = 0
KQU1 180247Z 20006KT 14/06 A2985 RMK A01 T01420063  RH  059%=      5-min Rain = 0
KQU1 180248Z 20007KT 14/06 A2985 RMK A01 T01430063  RH  059%=      5-min Rain = 0
KQU1 180249Z 19006KT 14/06 A2985 RMK A01 T01440064  RH  058%=      5-min Rain = 0
KQU1 180250Z 19007KT 15/06 A2985 RMK A01 T01450064  RH  058%=      5-min Rain = 0
KQU1 180251Z 19007KT 15/06 A2985 RMK A01 T01460064  RH  058%=      5-min Rain = 0
KQU1 180252Z 19006KT 15/06 A2985 RMK A01 T01470064  RH  057%=      5-min Rain = 0
KQU1 180253Z 19007KT 15/06 A2985 RMK A01 T01480064  RH  057%=      5-min Rain = 0
KQU1 180254Z 19007KT 15/06 A2985 RMK A01 T01480064  RH  057%=      5-min Rain = 0
KQU1 180255Z 18008KT 15/06 A2985 RMK A01 T01480064  RH  057%=      5-min Rain = 0
KQU1 180256Z 17008KT 15/07 A2984 RMK A01 T01490065  RH  057%=      5-min Rain = 0
KQU1 180257Z 17010KT 15/07 A2984 RMK A01 T01500066  RH  057%=      5-min Rain = 0
KQU1 180258Z 17010KT 15/07 A2984 RMK A01 T01520066  RH  057%=      5-min Rain = 0
KQU1 180259Z 16011KT 15/07 A2984 RMK A01 T01520066  RH  056%=      5-min Rain = 0
KQU1 180300Z 17010KT 15/07 A2984 RMK A01 T01520066  RH  056%=      5-min Rain = 0
KQU1 180301Z 17009KT 15/07 A2984 RMK A01 T01520066  RH  056%=      5-min Rain = 0
KQU1 180302Z 18009KT 15/07 A2984 RMK A01 T01520066  RH  056%=      5-min Rain = 0
KQU1 180303Z 17009KT 15/07 A2985 RMK A01 T01520067  RH  057%=      5-min Rain = 0
KQU1 180304Z 17008KT 15/07 A2985 RMK A01 T01520067  RH  057%=      5-min Rain = 0
KQU1 180305Z 17009KT 15/07 A2985 RMK A01 T01530067  RH  057%=      5-min Rain = 0
KQU1 180306Z 17009KT 15/07 A2985 RMK A01 T01530068  RH  057%=      5-min Rain = 0
KQU1 180307Z 18008KT 15/07 A2985 RMK A01 T01530068  RH  057%=      5-min Rain = 0
KQU1 180308Z 18008KT 15/07 A2985 RMK A01 T01530067  RH  057%=      5-min Rain = 0
KQU1 180309Z 18008KT 15/07 A2985 RMK A01 T01530068  RH  057%=      5-min Rain = 0
KQU1 180310Z 19006KT 15/07 A2985 RMK A01 T01530068  RH  057%=      5-min Rain = 0
KQU1 180311Z 19007KT 15/07 A2985 RMK A01 T01530067  RH  057%=      5-min Rain = 0
KQU1 180312Z 19007KT 15/07 A2985 RMK A01 T01510067  RH  057%=      5-min Rain = 0
KQU1 180313Z 19007KT 15/07 A2985 RMK A01 T01500067  RH  057%=      5-min Rain = 0
KQU1 180314Z 19007KT 15/07 A2985 RMK A01 T01490067  RH  058%=      5-min Rain = 0
KQU1 180315Z 20006KT 15/07 A2985 RMK A01 T01470067  RH  059%=      5-min Rain = 0
KQU1 180316Z 21008KT 14/07 A2985 RMK A01 T01440066  RH  059%=      5-min Rain = 0
KQU1 180317Z 20008KT 14/07 A2985 RMK A01 T01420066  RH  060%=      5-min Rain = 0
KQU1 180318Z 20008KT 14/07 A2985 RMK A01 T01410067  RH  061%=      5-min Rain = 0
KQU1 180319Z 20008KT 14/07 A2985 RMK A01 T01400067  RH  062%=      5-min Rain = 0
KQU1 180320Z 20008KT 14/07 A2985 RMK A01 T01390068  RH  062%=      5-min Rain = 0
KQU1 180321Z 20008KT 14/07 A2985 RMK A01 T01390068  RH  062%=      5-min Rain = 0
KQU1 180322Z 20008KT 14/07 A2985 RMK A01 T01390068  RH  062%=      5-min Rain = 0
KQU1 180323Z 20009KT 14/07 A2985 RMK A01 T01390068  RH  062%=      5-min Rain = 0
KQU1 180324Z 20008KT 14/07 A2985 RMK A01 T01390069  RH  062%=      5-min Rain = 0
KQU1 180325Z 20008KT 14/07 A2985 RMK A01 T01390069  RH  062%=      5-min Rain = 0
KQU1 180326Z 20008KT 14/07 A2985 RMK A01 T01400069  RH  062%=      5-min Rain = 0
KQU1 180327Z 20008KT 14/07 A2985 RMK A01 T01400069  RH  062%=      5-min Rain = 0
KQU1 180328Z 20008KT 14/07 A2985 RMK A01 T01400069  RH  062%=      5-min Rain = 0
KQU1 180329Z 20008KT 14/07 A2985 RMK A01 T01410069  RH  062%=      5-min Rain = 0
KQU1 180330Z 20008KT 14/07 A2985 RMK A01 T01400069  RH  062%=      5-min Rain = 0
KQU1 180331Z 20008KT 14/07 A2985 RMK A01 T01400069  RH  062%=      5-min Rain = 0
KQU1 180332Z 20008KT 14/07 A2985 RMK A01 T01400069  RH  062%=      5-min Rain = 0
KQU1 180333Z 20009KT 14/07 A2985 RMK A01 T01400069  RH  062%=      5-min Rain = 0
KQU1 180334Z 20009KT 14/07 A2985 RMK A01 T01400069  RH  063%=      5-min Rain = 0
KQU1 180335Z 21009KT 14/07 A2985 RMK A01 T01400070  RH  062%=      5-min Rain = 0
KQU1 180336Z 20010KT 14/07 A2985 RMK A01 T01410070  RH  062%=      5-min Rain = 0
KQU1 180337Z 20009KT 14/07 A2985 RMK A01 T01420070  RH  062%=      5-min Rain = 0
KQU1 180338Z 20010KT 14/07 A2985 RMK A01 T01430070  RH  062%=      5-min Rain = 0
KQU1 180339Z 20010KT 14/07 A2985 RMK A01 T01440070  RH  061%=      5-min Rain = 0
KQU1 180340Z 20010KT 15/07 A2985 RMK A01 T01450070  RH  060%=      5-min Rain = 0
KQU1 180341Z 20010KT 15/07 A2985 RMK A01 T01470069  RH  060%=      5-min Rain = 0
KQU1 180342Z 20010KT 15/07 A2985 RMK A01 T01490069  RH  059%=      5-min Rain = 0
KQU1 180343Z 20010KT 15/07 A2985 RMK A01 T01500069  RH  058%=      5-min Rain = 0
KQU1 180344Z 20010KT 15/07 A2985 RMK A01 T01500068  RH  058%=      5-min Rain = 0
KQU1 180345Z 20011KT 15/07 A2985 RMK A01 T01500068  RH  058%=      5-min Rain = 0
KQU1 180346Z 19010KT 15/07 A2985 RMK A01 T01510068  RH  058%=      5-min Rain = 0
KQU1 180347Z 19010KT 15/07 A2985 RMK A01 T01510067  RH  057%=      5-min Rain = 0
KQU1 180348Z 19010KT 15/07 A2985 RMK A01 T01520067  RH  057%=      5-min Rain = 0
KQU1 180349Z 19009KT 15/07 A2985 RMK A01 T01520066  RH  057%=      5-min Rain = 0
KQU1 180350Z 19010KT 15/07 A2985 RMK A01 T01510066  RH  057%=      5-min Rain = 0
KQU1 180351Z 19009KT 15/07 A2985 RMK A01 T01500066  RH  057%=      5-min Rain = 0
KQU1 180352Z 19009KT 15/07 A2985 RMK A01 T01490066  RH  058%=      5-min Rain = 0
KQU1 180353Z 19009KT 15/07 A2985 RMK A01 T01480066  RH  058%=      5-min Rain = 0
KQU1 180354Z 19009KT 15/07 A2985 RMK A01 T01470066  RH  058%=      5-min Rain = 0
KQU1 180355Z 19009KT 15/07 A2985 RMK A01 T01460065  RH  058%=      5-min Rain = 0
KQU1 180356Z 19010KT 15/07 A2985 RMK A01 T01450065  RH  059%=      5-min Rain = 0
KQU1 180357Z 19010KT 15/07 A2985 RMK A01 T01450065  RH  058%=      5-min Rain = 0
KQU1 180358Z 19009KT 15/06 A2985 RMK A01 T01450064  RH  058%=      5-min Rain = 0
KQU1 180359Z 19008KT 15/06 A2985 RMK A01 T01450064  RH  058%=      5-min Rain = 0
KQU1 180400Z 19008KT 15/06 A2985 RMK A01 T01450064  RH  058%=      5-min Rain = 0
KQU1 180401Z 20008KT 14/06 A2985 RMK A01 T01440063  RH  058%=      5-min Rain = 0
KQU1 180402Z 20009KT 14/06 A2985 RMK A01 T01440063  RH  058%=      5-min Rain = 0
KQU1 180403Z 20009KT 14/06 A2985 RMK A01 T01430063  RH  059%=      5-min Rain = 0
KQU1 180404Z 20010KT 14/06 A2985 RMK A01 T01430063  RH  059%=      5-min Rain = 0
KQU1 180405Z 19009KT 14/06 A2985 RMK A01 T01420063  RH  059%=      5-min Rain = 0
KQU1 180406Z 20010KT 14/06 A2985 RMK A01 T01410063  RH  059%=      5-min Rain = 0
KQU1 180407Z 19010KT 14/06 A2985 RMK A01 T01410064  RH  060%=      5-min Rain = 0
KQU1 180408Z 20010KT 14/06 A2985 RMK A01 T01410064  RH  060%=      5-min Rain = 0
KQU1 180409Z 20010KT 14/06 A2985 RMK A01 T01400063  RH  060%=      5-min Rain = 0
KQU1 180410Z 20010KT 14/06 A2985 RMK A01 T01400063  RH  060%=      5-min Rain = 0
KQU1 180411Z 20010KT 14/06 A2985 RMK A01 T01400063  RH  060%=      5-min Rain = 0
KQU1 180412Z 20010KT 14/06 A2985 RMK A01 T01400063  RH  060%=      5-min Rain = 0
KQU1 180413Z 20010KT 14/06 A2985 RMK A01 T01400063  RH  060%=      5-min Rain = 0
KQU1 180414Z 20010KT 14/06 A2985 RMK A01 T01400062  RH  060%=      5-min Rain = 0
KQU1 180415Z 20010KT 14/06 A2985 RMK A01 T01390062  RH  060%=      5-min Rain = 0
KQU1 180416Z 20009KT 14/06 A2985 RMK A01 T01390062  RH  060%=      5-min Rain = 0
KQU1 180417Z 20009KT 14/06 A2985 RMK A01 T01390062  RH  060%=      5-min Rain = 0
KQU1 180418Z 20009KT 14/06 A2985 RMK A01 T01380062  RH  060%=      5-min Rain = 0
KQU1 180419Z 20009KT 14/06 A2985 RMK A01 T01370062  RH  060%=      5-min Rain = 0
KQU1 180420Z 20009KT 14/06 A2985 RMK A01 T01360061  RH  060%=      5-min Rain = 0
KQU1 180421Z 20009KT 14/06 A2985 RMK A01 T01350061  RH  061%=      5-min Rain = 0
KQU1 180422Z 20009KT 14/06 A2985 RMK A01 T01350061  RH  061%=      5-min Rain = 0
KQU1 180423Z 20009KT 13/06 A2985 RMK A01 T01340061  RH  061%=      5-min Rain = 0
KQU1 180424Z 20009KT 13/06 A2985 RMK A01 T01340060  RH  061%=      5-min Rain = 0
KQU1 180425Z 21009KT 13/06 A2985 RMK A01 T01340060  RH  061%=      5-min Rain = 0
KQU1 180426Z 21009KT 13/06 A2985 RMK A01 T01340060  RH  061%=      5-min Rain = 0
KQU1 180427Z 21009KT 14/06 A2985 RMK A01 T01350059  RH  060%=      5-min Rain = 0
KQU1 180428Z 21009KT 14/06 A2985 RMK A01 T01350059  RH  060%=      5-min Rain = 0
KQU1 180429Z 21009KT 14/06 A2985 RMK A01 T01350059  RH  060%=      5-min Rain = 0
KQU1 180430Z 20009KT 14/06 A2985 RMK A01 T01350058  RH  060%=      5-min Rain = 0
KQU1 180431Z 20009KT 14/06 A2985 RMK A01 T01350058  RH  060%=      5-min Rain = 0
KQU1 180432Z 20009KT 14/06 A2985 RMK A01 T01360058  RH  059%=      5-min Rain = 0
KQU1 180433Z 20009KT 14/06 A2985 RMK A01 T01360058  RH  059%=      5-min Rain = 0
KQU1 180434Z 20009KT 14/06 A2985 RMK A01 T01370057  RH  059%=      5-min Rain = 0
KQU1 180435Z 20009KT 14/06 A2985 RMK A01 T01370057  RH  058%=      5-min Rain = 0
KQU1 180436Z 20009KT 14/06 A2985 RMK A01 T01380057  RH  058%=      5-min Rain = 0
KQU1 180437Z 20009KT 14/06 A2985 RMK A01 T01380056  RH  058%=      5-min Rain = 0
KQU1 180438Z 20009KT 14/06 A2985 RMK A01 T01380056  RH  058%=      5-min Rain = 0
KQU1 180439Z 20009KT 14/06 A2985 RMK A01 T01380056  RH  058%=      5-min Rain = 0
KQU1 180440Z 20009KT 14/06 A2985 RMK A01 T01380056  RH  058%=      5-min Rain = 0
KQU1 180441Z 20009KT 14/06 A2985 RMK A01 T01370056  RH  058%=      5-min Rain = 0
KQU1 180442Z 20009KT 14/06 A2984 RMK A01 T01370056  RH  058%=      5-min Rain = 0
KQU1 180443Z 20009KT 14/06 A2984 RMK A01 T01370056  RH  058%=      5-min Rain = 0
KQU1 180444Z 20009KT 14/06 A2984 RMK A01 T01360056  RH  058%=      5-min Rain = 0
KQU1 180445Z 20009KT 14/06 A2984 RMK A01 T01360056  RH  058%=      5-min Rain = 0
KQU1 180446Z 20009KT 14/06 A2984 RMK A01 T01350056  RH  059%=      5-min Rain = 0
KQU1 180447Z 20009KT 13/06 A2984 RMK A01 T01340056  RH  059%=      5-min Rain = 0
KQU1 180448Z 20009KT 13/06 A2984 RMK A01 T01340056  RH  059%=      5-min Rain = 0
KQU1 180449Z 20009KT 13/06 A2984 RMK A01 T01340056  RH  059%=      5-min Rain = 0
KQU1 180450Z 20009KT 13/06 A2984 RMK A01 T01340056  RH  059%=      5-min Rain = 0
KQU1 180451Z 20009KT 13/06 A2984 RMK A01 T01330055  RH  059%=      5-min Rain = 0
KQU1 180452Z 20009KT 13/06 A2984 RMK A01 T01330055  RH  059%=      5-min Rain = 0
KQU1 180453Z 20009KT 13/06 A2984 RMK A01 T01340055  RH  059%=      5-min Rain = 0
KQU1 180454Z 20009KT 13/06 A2984 RMK A01 T01340055  RH  059%=      5-min Rain = 0
KQU1 180455Z 20009KT 13/06 A2984 RMK A01 T01340055  RH  059%=      5-min Rain = 0
KQU1 180456Z 20009KT 13/06 A2984 RMK A01 T01340055  RH  059%=      5-min Rain = 0
KQU1 180457Z 20009KT 13/06 A2984 RMK A01 T01340055  RH  059%=      5-min Rain = 0
KQU1 180458Z 20008KT 13/06 A2984 RMK A01 T01340055  RH  059%=      5-min Rain = 0
KQU1 180459Z 20008KT 13/05 A2984 RMK A01 T01340054  RH  059%=      5-min Rain = 0

Page generated in 0.0815 seconds.